﻿<?xml version="1.0" encoding="utf-8"?><gpx creator="Garmin Desktop App" version="1.1" xsi:schemaLocation="http://www.topografix.com/GPX/1/1 http://www.topografix.com/GPX/1/1/gpx.xsd http://www.garmin.com/xmlschemas/WaypointExtension/v1 http://www8.garmin.com/xmlschemas/WaypointExtensionv1.xsd http://www.garmin.com/xmlschemas/TrackPointExtension/v1 http://www.garmin.com/xmlschemas/TrackPointExtensionv1.xsd http://www.garmin.com/xmlschemas/GpxExtensions/v3 http://www8.garmin.com/xmlschemas/GpxExtensionsv3.xsd http://www.garmin.com/xmlschemas/ActivityExtension/v1 http://www8.garmin.com/xmlschemas/ActivityExtensionv1.xsd http://www.garmin.com/xmlschemas/AdventuresExtensions/v1 http://www8.garmin.com/xmlschemas/AdventuresExtensionv1.xsd http://www.garmin.com/xmlschemas/PressureExtension/v1 http://www.garmin.com/xmlschemas/PressureExtensionv1.xsd http://www.garmin.com/xmlschemas/TripExtensions/v1 http://www.garmin.com/xmlschemas/TripExtensionsv1.xsd http://www.garmin.com/xmlschemas/TripMetaDataExtensions/v1 http://www.garmin.com/xmlschemas/TripMetaDataExtensionsv1.xsd http://www.garmin.com/xmlschemas/ViaPointTransportationModeExtensions/v1 http://www.garmin.com/xmlschemas/ViaPointTransportationModeExtensionsv1.xsd http://www.garmin.com/xmlschemas/CreationTimeExtension/v1 http://www.garmin.com/xmlschemas/CreationTimeExtensionsv1.xsd http://www.garmin.com/xmlschemas/AccelerationExtension/v1 http://www.garmin.com/xmlschemas/AccelerationExtensionv1.xsd http://www.garmin.com/xmlschemas/PowerExtension/v1 http://www.garmin.com/xmlschemas/PowerExtensionv1.xsd http://www.garmin.com/xmlschemas/VideoExtension/v1 http://www.garmin.com/xmlschemas/VideoExtensionv1.xsd" xmlns="http://www.topografix.com/GPX/1/1" xmlns:xsi="http://www.w3.org/2001/XMLSchema-instance" xmlns:wptx1="http://www.garmin.com/xmlschemas/WaypointExtension/v1" xmlns:gpxtrx="http://www.garmin.com/xmlschemas/GpxExtensions/v3" xmlns:gpxtpx="http://www.garmin.com/xmlschemas/TrackPointExtension/v1" xmlns:gpxx="http://www.garmin.com/xmlschemas/GpxExtensions/v3" xmlns:trp="http://www.garmin.com/xmlschemas/TripExtensions/v1" xmlns:adv="http://www.garmin.com/xmlschemas/AdventuresExtensions/v1" xmlns:prs="http://www.garmin.com/xmlschemas/PressureExtension/v1" xmlns:tmd="http://www.garmin.com/xmlschemas/TripMetaDataExtensions/v1" xmlns:vptm="http://www.garmin.com/xmlschemas/ViaPointTransportationModeExtensions/v1" xmlns:ctx="http://www.garmin.com/xmlschemas/CreationTimeExtension/v1" xmlns:gpxacc="http://www.garmin.com/xmlschemas/AccelerationExtension/v1" xmlns:gpxpx="http://www.garmin.com/xmlschemas/PowerExtension/v1" xmlns:vidx1="http://www.garmin.com/xmlschemas/VideoExtension/v1">

  <metadata>
    <link href="http://www.garmin.com">
      <text>Garmin International</text>
    </link>
    <time>2021-01-25T14:37:54Z</time>
    <bounds maxlat="46.021793475374579" maxlon="9.48649300262332" minlat="45.976441511884332" minlon="9.453193880617619" />
  </metadata>

  <trk>
    <name>Rif. Madonna della Neve -Val Biandino</name>
    <extensions>
      <gpxx:TrackExtension>
        <gpxx:DisplayColor>Yellow</gpxx:DisplayColor>
      </gpxx:TrackExtension>
    </extensions>
    <trkseg>
      <trkpt lat="45.976441511884332" lon="9.453696878626943">
        <ele>638</ele>
        <time>2010-01-01T00:00:00Z</time>
      </trkpt>
      <trkpt lat="45.976624740287662" lon="9.453619681298733">
        <ele>640</ele>
        <time>2010-01-01T00:00:07Z</time>
      </trkpt>
      <trkpt lat="45.97666815854609" lon="9.453876921907067">
        <ele>648</ele>
        <time>2010-01-01T00:00:15Z</time>
      </trkpt>
      <trkpt lat="45.97681081853807" lon="9.453710373491049">
        <ele>649</ele>
        <time>2010-01-01T00:00:22Z</time>
      </trkpt>
      <trkpt lat="45.976979797706008" lon="9.453621190041304">
        <ele>654</ele>
        <time>2010-01-01T00:00:29Z</time>
      </trkpt>
      <trkpt lat="45.977159505710006" lon="9.453650526702404">
        <ele>662</ele>
        <time>2010-01-01T00:00:36Z</time>
      </trkpt>
      <trkpt lat="45.977345667779446" lon="9.453530749306083">
        <ele>666</ele>
        <time>2010-01-01T00:00:44Z</time>
      </trkpt>
      <trkpt lat="45.977502912282944" lon="9.453385239467025">
        <ele>667</ele>
        <time>2010-01-01T00:00:52Z</time>
      </trkpt>
      <trkpt lat="45.97763073630631" lon="9.453193880617619">
        <ele>660</ele>
        <time>2010-01-01T00:00:59Z</time>
      </trkpt>
      <trkpt lat="45.977587485685945" lon="9.453460844233632">
        <ele>670</ele>
        <time>2010-01-01T00:01:07Z</time>
      </trkpt>
      <trkpt lat="45.977530824020505" lon="9.453714480623603">
        <ele>679</ele>
        <time>2010-01-01T00:01:14Z</time>
      </trkpt>
      <trkpt lat="45.977415908128023" lon="9.453921597450972">
        <ele>683</ele>
        <time>2010-01-01T00:01:22Z</time>
      </trkpt>
      <trkpt lat="45.977351702749729" lon="9.454168612137437">
        <ele>688</ele>
        <time>2010-01-01T00:01:29Z</time>
      </trkpt>
      <trkpt lat="45.97725598141551" lon="9.454392408952117">
        <ele>691</ele>
        <time>2010-01-01T00:01:36Z</time>
      </trkpt>
      <trkpt lat="45.977437281981111" lon="9.454378243535757">
        <ele>699</ele>
        <time>2010-01-01T00:01:44Z</time>
      </trkpt>
      <trkpt lat="45.977521268650889" lon="9.454610589891672">
        <ele>711</ele>
        <time>2010-01-01T00:01:51Z</time>
      </trkpt>
      <trkpt lat="45.977533087134361" lon="9.454874033108354">
        <ele>720</ele>
        <time>2010-01-01T00:01:58Z</time>
      </trkpt>
      <trkpt lat="45.977508528158069" lon="9.455145690590143">
        <ele>726</ele>
        <time>2010-01-01T00:02:06Z</time>
      </trkpt>
      <trkpt lat="45.977555215358734" lon="9.455399243161082">
        <ele>730</ele>
        <time>2010-01-01T00:02:13Z</time>
      </trkpt>
      <trkpt lat="45.977701060473919" lon="9.455565623939037">
        <ele>731</ele>
        <time>2010-01-01T00:02:21Z</time>
      </trkpt>
      <trkpt lat="45.977804660797119" lon="9.455777183175087">
        <ele>731</ele>
        <time>2010-01-01T00:02:28Z</time>
      </trkpt>
      <trkpt lat="45.977985290810466" lon="9.455857062712312">
        <ele>729</ele>
        <time>2010-01-01T00:02:35Z</time>
      </trkpt>
      <trkpt lat="45.978102637454867" lon="9.45607197470963">
        <ele>735</ele>
        <time>2010-01-01T00:02:43Z</time>
      </trkpt>
      <trkpt lat="45.978231886401772" lon="9.456253526732326">
        <ele>741</ele>
        <time>2010-01-01T00:02:50Z</time>
      </trkpt>
      <trkpt lat="45.978339510038495" lon="9.456463158130646">
        <ele>748</ele>
        <time>2010-01-01T00:02:58Z</time>
      </trkpt>
      <trkpt lat="45.978236915543675" lon="9.456682009622455">
        <ele>757</ele>
        <time>2010-01-01T00:03:05Z</time>
      </trkpt>
      <trkpt lat="45.97806709818542" lon="9.456780329346657">
        <ele>759</ele>
        <time>2010-01-01T00:03:12Z</time>
      </trkpt>
      <trkpt lat="45.978089980781078" lon="9.457042180001736">
        <ele>769</ele>
        <time>2010-01-01T00:03:20Z</time>
      </trkpt>
      <trkpt lat="45.978273041546345" lon="9.457116276025772">
        <ele>775</ele>
        <time>2010-01-01T00:03:27Z</time>
      </trkpt>
      <trkpt lat="45.978474374860525" lon="9.457126334309578">
        <ele>768</ele>
        <time>2010-01-01T00:03:35Z</time>
      </trkpt>
      <trkpt lat="45.978636564686894" lon="9.457248207181692">
        <ele>765</ele>
        <time>2010-01-01T00:03:43Z</time>
      </trkpt>
      <trkpt lat="45.978782409802079" lon="9.457412576302886">
        <ele>766</ele>
        <time>2010-01-01T00:03:50Z</time>
      </trkpt>
      <trkpt lat="45.978871341794729" lon="9.457644922658801">
        <ele>775</ele>
        <time>2010-01-01T00:03:57Z</time>
      </trkpt>
      <trkpt lat="45.979024060070515" lon="9.457809962332249">
        <ele>778</ele>
        <time>2010-01-01T00:04:05Z</time>
      </trkpt>
      <trkpt lat="45.979170994833112" lon="9.457984054461122">
        <ele>783</ele>
        <time>2010-01-01T00:04:13Z</time>
      </trkpt>
      <trkpt lat="45.979289682582021" lon="9.458191422745585">
        <ele>795</ele>
        <time>2010-01-01T00:04:20Z</time>
      </trkpt>
      <trkpt lat="45.979431169107556" lon="9.458371298387647">
        <ele>802</ele>
        <time>2010-01-01T00:04:28Z</time>
      </trkpt>
      <trkpt lat="45.979526471346617" lon="9.458593335002661">
        <ele>806</ele>
        <time>2010-01-01T00:04:35Z</time>
      </trkpt>
      <trkpt lat="45.979665275663137" lon="9.458767678588629">
        <ele>807</ele>
        <time>2010-01-01T00:04:42Z</time>
      </trkpt>
      <trkpt lat="45.979677680879831" lon="9.459026260301471">
        <ele>811</ele>
        <time>2010-01-01T00:04:49Z</time>
      </trkpt>
      <trkpt lat="45.979686984792352" lon="9.459288362413645">
        <ele>817</ele>
        <time>2010-01-01T00:04:57Z</time>
      </trkpt>
      <trkpt lat="45.979779018089175" lon="9.459517020732164">
        <ele>819</ele>
        <time>2010-01-01T00:05:04Z</time>
      </trkpt>
      <trkpt lat="45.97985646687448" lon="9.459759844467044">
        <ele>823</ele>
        <time>2010-01-01T00:05:12Z</time>
      </trkpt>
      <trkpt lat="45.979959899559617" lon="9.45997467264533">
        <ele>825</ele>
        <time>2010-01-01T00:05:19Z</time>
      </trkpt>
      <trkpt lat="45.980124268680811" lon="9.46011490188539">
        <ele>825</ele>
        <time>2010-01-01T00:05:26Z</time>
      </trkpt>
      <trkpt lat="45.980311185121536" lon="9.460224872455001">
        <ele>826</ele>
        <time>2010-01-01T00:05:35Z</time>
      </trkpt>
      <trkpt lat="45.980493240058422" lon="9.460262255743146">
        <ele>824</ele>
        <time>2010-01-01T00:05:42Z</time>
      </trkpt>
      <trkpt lat="45.980673031881452" lon="9.460296034812927">
        <ele>823</ele>
        <time>2010-01-01T00:05:49Z</time>
      </trkpt>
      <trkpt lat="45.980833629146218" lon="9.460434168577194">
        <ele>824</ele>
        <time>2010-01-01T00:05:57Z</time>
      </trkpt>
      <trkpt lat="45.980978803709149" lon="9.460597950965166">
        <ele>826</ele>
        <time>2010-01-01T00:06:04Z</time>
      </trkpt>
      <trkpt lat="45.981089109554887" lon="9.460837924852967">
        <ele>830</ele>
        <time>2010-01-01T00:06:12Z</time>
      </trkpt>
      <trkpt lat="45.981201427057385" lon="9.46105258539319">
        <ele>834</ele>
        <time>2010-01-01T00:06:20Z</time>
      </trkpt>
      <trkpt lat="45.981319695711136" lon="9.461067756637931">
        <ele>833</ele>
        <time>2010-01-01T00:06:24Z</time>
      </trkpt>
      <trkpt lat="45.981499990448356" lon="9.46126070804894">
        <ele>834</ele>
        <time>2010-01-01T00:06:33Z</time>
      </trkpt>
      <trkpt lat="45.981632089242339" lon="9.461444858461618">
        <ele>836</ele>
        <time>2010-01-01T00:06:41Z</time>
      </trkpt>
      <trkpt lat="45.981791010126472" lon="9.461572431027889">
        <ele>837</ele>
        <time>2010-01-01T00:06:48Z</time>
      </trkpt>
      <trkpt lat="45.981959402561188" lon="9.461712073534727">
        <ele>839</ele>
        <time>2010-01-01T00:06:56Z</time>
      </trkpt>
      <trkpt lat="45.982148498296738" lon="9.461719114333391">
        <ele>838</ele>
        <time>2010-01-01T00:07:03Z</time>
      </trkpt>
      <trkpt lat="45.982329631224275" lon="9.461644263938069">
        <ele>833</ele>
        <time>2010-01-01T00:07:11Z</time>
      </trkpt>
      <trkpt lat="45.982525432482362" lon="9.461625572293997">
        <ele>832</ele>
        <time>2010-01-01T00:07:19Z</time>
      </trkpt>
      <trkpt lat="45.982686281204224" lon="9.461505794897676">
        <ele>832</ele>
        <time>2010-01-01T00:07:26Z</time>
      </trkpt>
      <trkpt lat="45.982871018350124" lon="9.461535131558776">
        <ele>833</ele>
        <time>2010-01-01T00:07:33Z</time>
      </trkpt>
      <trkpt lat="45.983062293380499" lon="9.461530186235905">
        <ele>834</ele>
        <time>2010-01-01T00:07:41Z</time>
      </trkpt>
      <trkpt lat="45.983257340267301" lon="9.461540831252933">
        <ele>834</ele>
        <time>2010-01-01T00:07:49Z</time>
      </trkpt>
      <trkpt lat="45.983450040221214" lon="9.461544184014201">
        <ele>837</ele>
        <time>2010-01-01T00:07:57Z</time>
      </trkpt>
      <trkpt lat="45.983650200068951" lon="9.461533119902015">
        <ele>841</ele>
        <time>2010-01-01T00:08:05Z</time>
      </trkpt>
      <trkpt lat="45.983836613595486" lon="9.461534880101681">
        <ele>845</ele>
        <time>2010-01-01T00:08:12Z</time>
      </trkpt>
      <trkpt lat="45.984009280800819" lon="9.461619704961777">
        <ele>848</ele>
        <time>2010-01-01T00:08:19Z</time>
      </trkpt>
      <trkpt lat="45.984170380979776" lon="9.461472602561116">
        <ele>851</ele>
        <time>2010-01-01T00:08:27Z</time>
      </trkpt>
      <trkpt lat="45.984298037365079" lon="9.461288955062628">
        <ele>854</ele>
        <time>2010-01-01T00:08:34Z</time>
      </trkpt>
      <trkpt lat="45.984444217756391" lon="9.461100781336427">
        <ele>857</ele>
        <time>2010-01-01T00:08:42Z</time>
      </trkpt>
      <trkpt lat="45.984625518321991" lon="9.461052166298032">
        <ele>861</ele>
        <time>2010-01-01T00:08:49Z</time>
      </trkpt>
      <trkpt lat="45.984741020947695" lon="9.460826693102717">
        <ele>863</ele>
        <time>2010-01-01T00:08:57Z</time>
      </trkpt>
      <trkpt lat="45.984760886058211" lon="9.460566015914083">
        <ele>870</ele>
        <time>2010-01-01T00:09:04Z</time>
      </trkpt>
      <trkpt lat="45.984926512464881" lon="9.460429726168513">
        <ele>876</ele>
        <time>2010-01-01T00:09:12Z</time>
      </trkpt>
      <trkpt lat="45.985105969011784" lon="9.460501223802567">
        <ele>878</ele>
        <time>2010-01-01T00:09:20Z</time>
      </trkpt>
      <trkpt lat="45.98527830094099" lon="9.460608512163162">
        <ele>880</ele>
        <time>2010-01-01T00:09:27Z</time>
      </trkpt>
      <trkpt lat="45.985454488545656" lon="9.460673136636615">
        <ele>883</ele>
        <time>2010-01-01T00:09:34Z</time>
      </trkpt>
      <trkpt lat="45.985561525449157" lon="9.460892910137773">
        <ele>881</ele>
        <time>2010-01-01T00:09:42Z</time>
      </trkpt>
      <trkpt lat="45.985653726384044" lon="9.461128944531083">
        <ele>881</ele>
        <time>2010-01-01T00:09:49Z</time>
      </trkpt>
      <trkpt lat="45.98577668890357" lon="9.461328350007534">
        <ele>880</ele>
        <time>2010-01-01T00:09:57Z</time>
      </trkpt>
      <trkpt lat="45.98591742105782" lon="9.461164735257626">
        <ele>886</ele>
        <time>2010-01-01T00:10:04Z</time>
      </trkpt>
      <trkpt lat="45.986096793785691" lon="9.461140595376492">
        <ele>892</ele>
        <time>2010-01-01T00:10:11Z</time>
      </trkpt>
      <trkpt lat="45.986263090744615" lon="9.461253331974149">
        <ele>894</ele>
        <time>2010-01-01T00:10:19Z</time>
      </trkpt>
      <trkpt lat="45.986427208408713" lon="9.461379814893007">
        <ele>895</ele>
        <time>2010-01-01T00:10:26Z</time>
      </trkpt>
      <trkpt lat="45.986608928069472" lon="9.461420467123389">
        <ele>898</ele>
        <time>2010-01-01T00:10:33Z</time>
      </trkpt>
      <trkpt lat="45.986790060997009" lon="9.461457347497344">
        <ele>904</ele>
        <time>2010-01-01T00:10:41Z</time>
      </trkpt>
      <trkpt lat="45.986961722373962" lon="9.461548877879977">
        <ele>909</ele>
        <time>2010-01-01T00:10:48Z</time>
      </trkpt>
      <trkpt lat="45.987141262739897" lon="9.461513506248593">
        <ele>920</ele>
        <time>2010-01-01T00:10:55Z</time>
      </trkpt>
      <trkpt lat="45.987319964915514" lon="9.461578382179141">
        <ele>926</ele>
        <time>2010-01-01T00:11:03Z</time>
      </trkpt>
      <trkpt lat="45.987492380663753" lon="9.461658345535398">
        <ele>931</ele>
        <time>2010-01-01T00:11:10Z</time>
      </trkpt>
      <trkpt lat="45.987658007070422" lon="9.461793377995491">
        <ele>933</ele>
        <time>2010-01-01T00:11:18Z</time>
      </trkpt>
      <trkpt lat="45.987835703417659" lon="9.461845178157091">
        <ele>938</ele>
        <time>2010-01-01T00:11:25Z</time>
      </trkpt>
      <trkpt lat="45.988022284582257" lon="9.461850374937058">
        <ele>945</ele>
        <time>2010-01-01T00:11:32Z</time>
      </trkpt>
      <trkpt lat="45.988200483843684" lon="9.461895385757089">
        <ele>950</ele>
        <time>2010-01-01T00:11:40Z</time>
      </trkpt>
      <trkpt lat="45.988374324515462" lon="9.462035279721022">
        <ele>949</ele>
        <time>2010-01-01T00:11:48Z</time>
      </trkpt>
      <trkpt lat="45.988557804375887" lon="9.462105939164758">
        <ele>950</ele>
        <time>2010-01-01T00:11:55Z</time>
      </trkpt>
      <trkpt lat="45.988742792978883" lon="9.462108202278614">
        <ele>955</ele>
        <time>2010-01-01T00:12:03Z</time>
      </trkpt>
      <trkpt lat="45.988922836259007" lon="9.462074171751738">
        <ele>961</ele>
        <time>2010-01-01T00:12:10Z</time>
      </trkpt>
      <trkpt lat="45.989104891195893" lon="9.462047768756747">
        <ele>968</ele>
        <time>2010-01-01T00:12:17Z</time>
      </trkpt>
      <trkpt lat="45.989284515380859" lon="9.462095713242889">
        <ele>970</ele>
        <time>2010-01-01T00:12:24Z</time>
      </trkpt>
      <trkpt lat="45.98947998136282" lon="9.462173581123352">
        <ele>970</ele>
        <time>2010-01-01T00:12:33Z</time>
      </trkpt>
      <trkpt lat="45.989658264443278" lon="9.46222186088562">
        <ele>972</ele>
        <time>2010-01-01T00:12:40Z</time>
      </trkpt>
      <trkpt lat="45.989841828122735" lon="9.462210210040212">
        <ele>977</ele>
        <time>2010-01-01T00:12:47Z</time>
      </trkpt>
      <trkpt lat="45.990019189193845" lon="9.462155140936375">
        <ele>983</ele>
        <time>2010-01-01T00:12:54Z</time>
      </trkpt>
      <trkpt lat="45.99018800072372" lon="9.462065286934376">
        <ele>988</ele>
        <time>2010-01-01T00:13:02Z</time>
      </trkpt>
      <trkpt lat="45.990360667929053" lon="9.461986077949405">
        <ele>993</ele>
        <time>2010-01-01T00:13:09Z</time>
      </trkpt>
      <trkpt lat="45.990492012351751" lon="9.461803017184138">
        <ele>1004</ele>
        <time>2010-01-01T00:13:16Z</time>
      </trkpt>
      <trkpt lat="45.990649592131376" lon="9.461655747145414">
        <ele>1014</ele>
        <time>2010-01-01T00:13:24Z</time>
      </trkpt>
      <trkpt lat="45.990814296528697" lon="9.46154166944325">
        <ele>1021</ele>
        <time>2010-01-01T00:13:31Z</time>
      </trkpt>
      <trkpt lat="45.990948993712664" lon="9.461366906762123">
        <ele>1029</ele>
        <time>2010-01-01T00:13:38Z</time>
      </trkpt>
      <trkpt lat="45.991135071963072" lon="9.461360704153776">
        <ele>1032</ele>
        <time>2010-01-01T00:13:46Z</time>
      </trkpt>
      <trkpt lat="45.991309080272913" lon="9.461456844583154">
        <ele>1031</ele>
        <time>2010-01-01T00:13:53Z</time>
      </trkpt>
      <trkpt lat="45.991471605375409" lon="9.461577460169792">
        <ele>1030</ele>
        <time>2010-01-01T00:14:01Z</time>
      </trkpt>
      <trkpt lat="45.991653995588422" lon="9.461643425747752">
        <ele>1031</ele>
        <time>2010-01-01T00:14:08Z</time>
      </trkpt>
      <trkpt lat="45.991830937564373" lon="9.461573185399175">
        <ele>1030</ele>
        <time>2010-01-01T00:14:15Z</time>
      </trkpt>
      <trkpt lat="45.992002012208104" lon="9.461461873725057">
        <ele>1031</ele>
        <time>2010-01-01T00:14:23Z</time>
      </trkpt>
      <trkpt lat="45.992141906172037" lon="9.461293984204531">
        <ele>1034</ele>
        <time>2010-01-01T00:14:30Z</time>
      </trkpt>
      <trkpt lat="45.992275681346655" lon="9.461096422746778">
        <ele>1040</ele>
        <time>2010-01-01T00:14:38Z</time>
      </trkpt>
      <trkpt lat="45.992396213114262" lon="9.460882348939776">
        <ele>1046</ele>
        <time>2010-01-01T00:14:46Z</time>
      </trkpt>
      <trkpt lat="45.992468800395727" lon="9.460645979270339">
        <ele>1055</ele>
        <time>2010-01-01T00:14:53Z</time>
      </trkpt>
      <trkpt lat="45.992659321054816" lon="9.460615636780858">
        <ele>1056</ele>
        <time>2010-01-01T00:15:00Z</time>
      </trkpt>
      <trkpt lat="45.992856882512569" lon="9.460641872137785">
        <ele>1055</ele>
        <time>2010-01-01T00:15:08Z</time>
      </trkpt>
      <trkpt lat="45.993036003783345" lon="9.460687385872006">
        <ele>1053</ele>
        <time>2010-01-01T00:15:16Z</time>
      </trkpt>
      <trkpt lat="45.993208670988679" lon="9.460767516866326">
        <ele>1050</ele>
        <time>2010-01-01T00:15:23Z</time>
      </trkpt>
      <trkpt lat="45.993392067030072" lon="9.460783107206225">
        <ele>1051</ele>
        <time>2010-01-01T00:15:30Z</time>
      </trkpt>
      <trkpt lat="45.993575295433402" lon="9.460811354219914">
        <ele>1052</ele>
        <time>2010-01-01T00:15:38Z</time>
      </trkpt>
      <trkpt lat="45.993760786950588" lon="9.460881678387523">
        <ele>1052</ele>
        <time>2010-01-01T00:15:45Z</time>
      </trkpt>
      <trkpt lat="45.993928760290146" lon="9.460985278710723">
        <ele>1051</ele>
        <time>2010-01-01T00:15:53Z</time>
      </trkpt>
      <trkpt lat="45.994103690609336" lon="9.46092358790338">
        <ele>1055</ele>
        <time>2010-01-01T00:16:00Z</time>
      </trkpt>
      <trkpt lat="45.99428272806108" lon="9.460992906242609">
        <ele>1058</ele>
        <time>2010-01-01T00:16:07Z</time>
      </trkpt>
      <trkpt lat="45.994463274255395" lon="9.460948063060641">
        <ele>1064</ele>
        <time>2010-01-01T00:16:15Z</time>
      </trkpt>
      <trkpt lat="45.994620518758893" lon="9.460819400846958">
        <ele>1072</ele>
        <time>2010-01-01T00:16:22Z</time>
      </trkpt>
      <trkpt lat="45.994782960042357" lon="9.460688391700387">
        <ele>1081</ele>
        <time>2010-01-01T00:16:29Z</time>
      </trkpt>
      <trkpt lat="45.994979431852698" lon="9.460721835494041">
        <ele>1086</ele>
        <time>2010-01-01T00:16:37Z</time>
      </trkpt>
      <trkpt lat="45.995145393535495" lon="9.460847061127424">
        <ele>1089</ele>
        <time>2010-01-01T00:16:45Z</time>
      </trkpt>
      <trkpt lat="45.995312109589577" lon="9.460970442742109">
        <ele>1094</ele>
        <time>2010-01-01T00:16:52Z</time>
      </trkpt>
      <trkpt lat="45.995490727946162" lon="9.46101394481957">
        <ele>1101</ele>
        <time>2010-01-01T00:16:59Z</time>
      </trkpt>
      <trkpt lat="45.995634393766522" lon="9.4611781463027">
        <ele>1103</ele>
        <time>2010-01-01T00:17:07Z</time>
      </trkpt>
      <trkpt lat="45.995777891948819" lon="9.461349388584495">
        <ele>1103</ele>
        <time>2010-01-01T00:17:14Z</time>
      </trkpt>
      <trkpt lat="45.99591669626534" lon="9.46153144352138">
        <ele>1102</ele>
        <time>2010-01-01T00:17:22Z</time>
      </trkpt>
      <trkpt lat="45.996072012931108" lon="9.461668152362108">
        <ele>1104</ele>
        <time>2010-01-01T00:17:29Z</time>
      </trkpt>
      <trkpt lat="45.996223976835608" lon="9.461815590038896">
        <ele>1109</ele>
        <time>2010-01-01T00:17:36Z</time>
      </trkpt>
      <trkpt lat="45.996403265744448" lon="9.461875688284636">
        <ele>1115</ele>
        <time>2010-01-01T00:17:44Z</time>
      </trkpt>
      <trkpt lat="45.996577860787511" lon="9.461952298879623">
        <ele>1120</ele>
        <time>2010-01-01T00:17:51Z</time>
      </trkpt>
      <trkpt lat="45.996690010651946" lon="9.4621641933918">
        <ele>1118</ele>
        <time>2010-01-01T00:17:58Z</time>
      </trkpt>
      <trkpt lat="45.996856559067965" lon="9.462267458438873">
        <ele>1124</ele>
        <time>2010-01-01T00:18:06Z</time>
      </trkpt>
      <trkpt lat="45.997017659246922" lon="9.462388409301639">
        <ele>1127</ele>
        <time>2010-01-01T00:18:13Z</time>
      </trkpt>
      <trkpt lat="45.997141879051924" lon="9.462591586634517">
        <ele>1127</ele>
        <time>2010-01-01T00:18:21Z</time>
      </trkpt>
      <trkpt lat="45.997270792722702" lon="9.462777245789766">
        <ele>1128</ele>
        <time>2010-01-01T00:18:28Z</time>
      </trkpt>
      <trkpt lat="45.997387636452913" lon="9.462981596589088">
        <ele>1128</ele>
        <time>2010-01-01T00:18:35Z</time>
      </trkpt>
      <trkpt lat="45.997452596202493" lon="9.463226851075888">
        <ele>1124</ele>
        <time>2010-01-01T00:18:43Z</time>
      </trkpt>
      <trkpt lat="45.997531302273273" lon="9.463469088077545">
        <ele>1122</ele>
        <time>2010-01-01T00:18:50Z</time>
      </trkpt>
      <trkpt lat="45.997675219550729" lon="9.463628511875868">
        <ele>1128</ele>
        <time>2010-01-01T00:18:57Z</time>
      </trkpt>
      <trkpt lat="45.997785106301308" lon="9.463837807998061">
        <ele>1129</ele>
        <time>2010-01-01T00:19:05Z</time>
      </trkpt>
      <trkpt lat="45.997917205095291" lon="9.464027658104897">
        <ele>1130</ele>
        <time>2010-01-01T00:19:12Z</time>
      </trkpt>
      <trkpt lat="45.997985266149044" lon="9.464280204847455">
        <ele>1129</ele>
        <time>2010-01-01T00:19:20Z</time>
      </trkpt>
      <trkpt lat="45.998157178983092" lon="9.464356563985348">
        <ele>1133</ele>
        <time>2010-01-01T00:19:27Z</time>
      </trkpt>
      <trkpt lat="45.99833931773901" lon="9.464407274499536">
        <ele>1138</ele>
        <time>2010-01-01T00:19:34Z</time>
      </trkpt>
      <trkpt lat="45.998522378504276" lon="9.464420350268483">
        <ele>1143</ele>
        <time>2010-01-01T00:19:41Z</time>
      </trkpt>
      <trkpt lat="45.99867451004684" lon="9.464565524831414">
        <ele>1144</ele>
        <time>2010-01-01T00:19:49Z</time>
      </trkpt>
      <trkpt lat="45.998849272727966" lon="9.464638531208038">
        <ele>1146</ele>
        <time>2010-01-01T00:19:56Z</time>
      </trkpt>
      <trkpt lat="45.999032920226455" lon="9.46462201885879">
        <ele>1151</ele>
        <time>2010-01-01T00:20:03Z</time>
      </trkpt>
      <trkpt lat="45.999207096174359" lon="9.464687816798687">
        <ele>1154</ele>
        <time>2010-01-01T00:20:11Z</time>
      </trkpt>
      <trkpt lat="45.999358221888542" lon="9.464845480397344">
        <ele>1154</ele>
        <time>2010-01-01T00:20:18Z</time>
      </trkpt>
      <trkpt lat="45.999509012326598" lon="9.464986966922879">
        <ele>1155</ele>
        <time>2010-01-01T00:20:25Z</time>
      </trkpt>
      <trkpt lat="45.999682266265154" lon="9.465072965249419">
        <ele>1162</ele>
        <time>2010-01-01T00:20:33Z</time>
      </trkpt>
      <trkpt lat="45.999804977327585" lon="9.465262815356255">
        <ele>1163</ele>
        <time>2010-01-01T00:20:40Z</time>
      </trkpt>
      <trkpt lat="45.999913103878498" lon="9.465477056801319">
        <ele>1161</ele>
        <time>2010-01-01T00:20:47Z</time>
      </trkpt>
      <trkpt lat="46.00008619017899" lon="9.465577891096473">
        <ele>1166</ele>
        <time>2010-01-01T00:20:55Z</time>
      </trkpt>
      <trkpt lat="46.000251565128565" lon="9.465697584673762">
        <ele>1172</ele>
        <time>2010-01-01T00:21:02Z</time>
      </trkpt>
      <trkpt lat="46.000374862924218" lon="9.465889446437359">
        <ele>1173</ele>
        <time>2010-01-01T00:21:09Z</time>
      </trkpt>
      <trkpt lat="46.000532191246748" lon="9.46601995266974">
        <ele>1180</ele>
        <time>2010-01-01T00:21:17Z</time>
      </trkpt>
      <trkpt lat="46.000707875937223" lon="9.466085582971573">
        <ele>1186</ele>
        <time>2010-01-01T00:21:24Z</time>
      </trkpt>
      <trkpt lat="46.000882973894477" lon="9.466161774471402">
        <ele>1192</ele>
        <time>2010-01-01T00:21:31Z</time>
      </trkpt>
      <trkpt lat="46.001063771545887" lon="9.466202929615974">
        <ele>1202</ele>
        <time>2010-01-01T00:21:39Z</time>
      </trkpt>
      <trkpt lat="46.00124373100698" lon="9.46615775115788">
        <ele>1215</ele>
        <time>2010-01-01T00:21:46Z</time>
      </trkpt>
      <trkpt lat="46.001423774287105" lon="9.466167641803622">
        <ele>1226</ele>
        <time>2010-01-01T00:21:53Z</time>
      </trkpt>
      <trkpt lat="46.001603901386261" lon="9.46618021465838">
        <ele>1236</ele>
        <time>2010-01-01T00:22:00Z</time>
      </trkpt>
      <trkpt lat="46.001756200566888" lon="9.46631851606071">
        <ele>1234</ele>
        <time>2010-01-01T00:22:08Z</time>
      </trkpt>
      <trkpt lat="46.001854101195931" lon="9.46652228012681">
        <ele>1223</ele>
        <time>2010-01-01T00:22:14Z</time>
      </trkpt>
      <trkpt lat="46.002022325992584" lon="9.466738868504763">
        <ele>1218</ele>
        <time>2010-01-01T00:22:23Z</time>
      </trkpt>
      <trkpt lat="46.002276884391904" lon="9.466790920123458">
        <ele>1224</ele>
        <time>2010-01-01T00:22:34Z</time>
      </trkpt>
      <trkpt lat="46.002460112795234" lon="9.46680910885334">
        <ele>1228</ele>
        <time>2010-01-01T00:22:41Z</time>
      </trkpt>
      <trkpt lat="46.002640491351485" lon="9.466805001720786">
        <ele>1231</ele>
        <time>2010-01-01T00:22:48Z</time>
      </trkpt>
      <trkpt lat="46.002827910706401" lon="9.466830398887396">
        <ele>1233</ele>
        <time>2010-01-01T00:22:56Z</time>
      </trkpt>
      <trkpt lat="46.003004182130098" lon="9.466925282031298">
        <ele>1233</ele>
        <time>2010-01-01T00:23:03Z</time>
      </trkpt>
      <trkpt lat="46.003185734152794" lon="9.466976244002581">
        <ele>1234</ele>
        <time>2010-01-01T00:23:11Z</time>
      </trkpt>
      <trkpt lat="46.003366783261299" lon="9.467023517936468">
        <ele>1234</ele>
        <time>2010-01-01T00:23:18Z</time>
      </trkpt>
      <trkpt lat="46.003518411889672" lon="9.466882618144155">
        <ele>1240</ele>
        <time>2010-01-01T00:23:25Z</time>
      </trkpt>
      <trkpt lat="46.003700718283653" lon="9.466917654499412">
        <ele>1243</ele>
        <time>2010-01-01T00:23:33Z</time>
      </trkpt>
      <trkpt lat="46.003896687179804" lon="9.466945314779878">
        <ele>1245</ele>
        <time>2010-01-01T00:23:41Z</time>
      </trkpt>
      <trkpt lat="46.004034904763103" lon="9.466854790225625">
        <ele>1251</ele>
        <time>2010-01-01T00:23:47Z</time>
      </trkpt>
      <trkpt lat="46.004210840910673" lon="9.466764265671372">
        <ele>1257</ele>
        <time>2010-01-01T00:23:54Z</time>
      </trkpt>
      <trkpt lat="46.004390632733703" lon="9.466676339507103">
        <ele>1263</ele>
        <time>2010-01-01T00:24:02Z</time>
      </trkpt>
      <trkpt lat="46.004573190584779" lon="9.466689415276051">
        <ele>1266</ele>
        <time>2010-01-01T00:24:09Z</time>
      </trkpt>
      <trkpt lat="46.004756586626172" lon="9.466674579307437">
        <ele>1269</ele>
        <time>2010-01-01T00:24:16Z</time>
      </trkpt>
      <trkpt lat="46.004920704290271" lon="9.466792680323124">
        <ele>1268</ele>
        <time>2010-01-01T00:24:24Z</time>
      </trkpt>
      <trkpt lat="46.005107620730996" lon="9.466796033084393">
        <ele>1271</ele>
        <time>2010-01-01T00:24:31Z</time>
      </trkpt>
      <trkpt lat="46.00529151968658" lon="9.466821178793907">
        <ele>1274</ele>
        <time>2010-01-01T00:24:39Z</time>
      </trkpt>
      <trkpt lat="46.005475083366036" lon="9.46684330701828">
        <ele>1276</ele>
        <time>2010-01-01T00:24:46Z</time>
      </trkpt>
      <trkpt lat="46.005657641217113" lon="9.466865351423621">
        <ele>1279</ele>
        <time>2010-01-01T00:24:53Z</time>
      </trkpt>
      <trkpt lat="46.005844138562679" lon="9.466804414987564">
        <ele>1285</ele>
        <time>2010-01-01T00:25:01Z</time>
      </trkpt>
      <trkpt lat="46.006023595109582" lon="9.46693710051477">
        <ele>1284</ele>
        <time>2010-01-01T00:25:09Z</time>
      </trkpt>
      <trkpt lat="46.006204728037119" lon="9.467029720544815">
        <ele>1284</ele>
        <time>2010-01-01T00:25:17Z</time>
      </trkpt>
      <trkpt lat="46.006372533738613" lon="9.467123430222273">
        <ele>1283</ele>
        <time>2010-01-01T00:25:24Z</time>
      </trkpt>
      <trkpt lat="46.006548469886184" lon="9.467196771875024">
        <ele>1284</ele>
        <time>2010-01-01T00:25:31Z</time>
      </trkpt>
      <trkpt lat="46.00673203356564" lon="9.467201298102737">
        <ele>1288</ele>
        <time>2010-01-01T00:25:39Z</time>
      </trkpt>
      <trkpt lat="46.006897911429405" lon="9.467098619788885">
        <ele>1295</ele>
        <time>2010-01-01T00:25:46Z</time>
      </trkpt>
      <trkpt lat="46.007067896425724" lon="9.467203812673688">
        <ele>1294</ele>
        <time>2010-01-01T00:25:53Z</time>
      </trkpt>
      <trkpt lat="46.007250370457768" lon="9.467246644198895">
        <ele>1295</ele>
        <time>2010-01-01T00:26:01Z</time>
      </trkpt>
      <trkpt lat="46.007425133138895" lon="9.467159220948815">
        <ele>1302</ele>
        <time>2010-01-01T00:26:08Z</time>
      </trkpt>
      <trkpt lat="46.007606768980622" lon="9.467139691114426">
        <ele>1306</ele>
        <time>2010-01-01T00:26:15Z</time>
      </trkpt>
      <trkpt lat="46.007788572460413" lon="9.467073138803244">
        <ele>1311</ele>
        <time>2010-01-01T00:26:23Z</time>
      </trkpt>
      <trkpt lat="46.007965514436364" lon="9.466991331428289">
        <ele>1316</ele>
        <time>2010-01-01T00:26:30Z</time>
      </trkpt>
      <trkpt lat="46.008143210783601" lon="9.466916145756841">
        <ele>1320</ele>
        <time>2010-01-01T00:26:38Z</time>
      </trkpt>
      <trkpt lat="46.008318224921823" lon="9.466855125501752">
        <ele>1323</ele>
        <time>2010-01-01T00:26:45Z</time>
      </trkpt>
      <trkpt lat="46.008500028401613" lon="9.46683450601995">
        <ele>1326</ele>
        <time>2010-01-01T00:26:52Z</time>
      </trkpt>
      <trkpt lat="46.008677473291755" lon="9.466778766363859">
        <ele>1329</ele>
        <time>2010-01-01T00:27:00Z</time>
      </trkpt>
      <trkpt lat="46.008861288428307" lon="9.46677683852613">
        <ele>1332</ele>
        <time>2010-01-01T00:27:07Z</time>
      </trkpt>
      <trkpt lat="46.00904711522162" lon="9.466793350875378">
        <ele>1334</ele>
        <time>2010-01-01T00:27:14Z</time>
      </trkpt>
      <trkpt lat="46.009225230664015" lon="9.466709280386567">
        <ele>1340</ele>
        <time>2010-01-01T00:27:22Z</time>
      </trkpt>
      <trkpt lat="46.00933687761426" lon="9.466503504663706">
        <ele>1351</ele>
        <time>2010-01-01T00:27:29Z</time>
      </trkpt>
      <trkpt lat="46.009470485150814" lon="9.46631851606071">
        <ele>1363</ele>
        <time>2010-01-01T00:27:37Z</time>
      </trkpt>
      <trkpt lat="46.009293291717768" lon="9.466269817203283">
        <ele>1356</ele>
        <time>2010-01-01T00:27:44Z</time>
      </trkpt>
      <trkpt lat="46.009408878162503" lon="9.466067897155881">
        <ele>1367</ele>
        <time>2010-01-01T00:27:51Z</time>
      </trkpt>
      <trkpt lat="46.009585736319423" lon="9.466012325137854">
        <ele>1376</ele>
        <time>2010-01-01T00:27:58Z</time>
      </trkpt>
      <trkpt lat="46.009479789063334" lon="9.465798838064075">
        <ele>1379</ele>
        <time>2010-01-01T00:28:06Z</time>
      </trkpt>
      <trkpt lat="46.009662598371506" lon="9.465747373178601">
        <ele>1388</ele>
        <time>2010-01-01T00:28:13Z</time>
      </trkpt>
      <trkpt lat="46.009845659136772" lon="9.465718874707818">
        <ele>1397</ele>
        <time>2010-01-01T00:28:20Z</time>
      </trkpt>
      <trkpt lat="46.010023858398199" lon="9.46575902402401">
        <ele>1403</ele>
        <time>2010-01-01T00:28:28Z</time>
      </trkpt>
      <trkpt lat="46.010185126215219" lon="9.465878549963236">
        <ele>1411</ele>
        <time>2010-01-01T00:28:35Z</time>
      </trkpt>
      <trkpt lat="46.010209517553449" lon="9.466136712580919">
        <ele>1407</ele>
        <time>2010-01-01T00:28:42Z</time>
      </trkpt>
      <trkpt lat="46.010295767337084" lon="9.466365203261375">
        <ele>1408</ele>
        <time>2010-01-01T00:28:49Z</time>
      </trkpt>
      <trkpt lat="46.010327702388167" lon="9.466623282060027">
        <ele>1403</ele>
        <time>2010-01-01T00:28:57Z</time>
      </trkpt>
      <trkpt lat="46.010538674890995" lon="9.466832662001252">
        <ele>1412</ele>
        <time>2010-01-01T00:29:07Z</time>
      </trkpt>
      <trkpt lat="46.010655183345079" lon="9.467098619788885">
        <ele>1412</ele>
        <time>2010-01-01T00:29:16Z</time>
      </trkpt>
      <trkpt lat="46.010813182219863" lon="9.467231305316091">
        <ele>1417</ele>
        <time>2010-01-01T00:29:23Z</time>
      </trkpt>
      <trkpt lat="46.010937569662929" lon="9.467429453507066">
        <ele>1419</ele>
        <time>2010-01-01T00:29:30Z</time>
      </trkpt>
      <trkpt lat="46.011029602959752" lon="9.467669259756804">
        <ele>1417</ele>
        <time>2010-01-01T00:29:38Z</time>
      </trkpt>
      <trkpt lat="46.011186009272933" lon="9.467810913920403">
        <ele>1421</ele>
        <time>2010-01-01T00:29:45Z</time>
      </trkpt>
      <trkpt lat="46.011352390050888" lon="9.467961201444268">
        <ele>1424</ele>
        <time>2010-01-01T00:29:53Z</time>
      </trkpt>
      <trkpt lat="46.011495469138026" lon="9.468130264431238">
        <ele>1423</ele>
        <time>2010-01-01T00:30:01Z</time>
      </trkpt>
      <trkpt lat="46.011666627600789" lon="9.468226991593838">
        <ele>1427</ele>
        <time>2010-01-01T00:30:08Z</time>
      </trkpt>
      <trkpt lat="46.011836193501949" lon="9.468336207792163">
        <ele>1425</ele>
        <time>2010-01-01T00:30:15Z</time>
      </trkpt>
      <trkpt lat="46.012040209025145" lon="9.468444585800171">
        <ele>1425</ele>
        <time>2010-01-01T00:30:24Z</time>
      </trkpt>
      <trkpt lat="46.012184713035822" lon="9.468599651008844">
        <ele>1422</ele>
        <time>2010-01-01T00:30:31Z</time>
      </trkpt>
      <trkpt lat="46.012343969196081" lon="9.468734432011843">
        <ele>1419</ele>
        <time>2010-01-01T00:30:39Z</time>
      </trkpt>
      <trkpt lat="46.012525269761682" lon="9.468769300729036">
        <ele>1422</ele>
        <time>2010-01-01T00:30:46Z</time>
      </trkpt>
      <trkpt lat="46.012648986652493" lon="9.468571739271283">
        <ele>1436</ele>
        <time>2010-01-01T00:30:54Z</time>
      </trkpt>
      <trkpt lat="46.012830035760999" lon="9.468593951314688">
        <ele>1441</ele>
        <time>2010-01-01T00:31:01Z</time>
      </trkpt>
      <trkpt lat="46.013006139546633" lon="9.46850853972137">
        <ele>1450</ele>
        <time>2010-01-01T00:31:08Z</time>
      </trkpt>
      <trkpt lat="46.013189116492867" lon="9.468498146161437">
        <ele>1457</ele>
        <time>2010-01-01T00:31:16Z</time>
      </trkpt>
      <trkpt lat="46.013367734849453" lon="9.468548521399498">
        <ele>1460</ele>
        <time>2010-01-01T00:31:23Z</time>
      </trkpt>
      <trkpt lat="46.013551717624068" lon="9.468614319339395">
        <ele>1463</ele>
        <time>2010-01-01T00:31:30Z</time>
      </trkpt>
      <trkpt lat="46.013739388436079" lon="9.468664862215519">
        <ele>1467</ele>
        <time>2010-01-01T00:31:38Z</time>
      </trkpt>
      <trkpt lat="46.01392412558198" lon="9.468688918277621">
        <ele>1472</ele>
        <time>2010-01-01T00:31:45Z</time>
      </trkpt>
      <trkpt lat="46.014106180518866" lon="9.46869813837111">
        <ele>1478</ele>
        <time>2010-01-01T00:31:53Z</time>
      </trkpt>
      <trkpt lat="46.01428521797061" lon="9.468742394819856">
        <ele>1485</ele>
        <time>2010-01-01T00:32:00Z</time>
      </trkpt>
      <trkpt lat="46.014468278735876" lon="9.468686738982797">
        <ele>1496</ele>
        <time>2010-01-01T00:32:08Z</time>
      </trkpt>
      <trkpt lat="46.014566933736205" lon="9.468904668465257">
        <ele>1495</ele>
        <time>2010-01-01T00:32:15Z</time>
      </trkpt>
      <trkpt lat="46.01458327844739" lon="9.469167022034526">
        <ele>1487</ele>
        <time>2010-01-01T00:32:22Z</time>
      </trkpt>
      <trkpt lat="46.014543632045388" lon="9.469420406967402">
        <ele>1477</ele>
        <time>2010-01-01T00:32:29Z</time>
      </trkpt>
      <trkpt lat="46.014694841578603" lon="9.469570694491267">
        <ele>1481</ele>
        <time>2010-01-01T00:32:37Z</time>
      </trkpt>
      <trkpt lat="46.014847727492452" lon="9.469715282320976">
        <ele>1484</ele>
        <time>2010-01-01T00:32:44Z</time>
      </trkpt>
      <trkpt lat="46.015021903440356" lon="9.469816535711289">
        <ele>1490</ele>
        <time>2010-01-01T00:32:52Z</time>
      </trkpt>
      <trkpt lat="46.015152828767896" lon="9.470008732751012">
        <ele>1485</ele>
        <time>2010-01-01T00:32:59Z</time>
      </trkpt>
      <trkpt lat="46.015295069664717" lon="9.47021434083581">
        <ele>1482</ele>
        <time>2010-01-01T00:33:07Z</time>
      </trkpt>
      <trkpt lat="46.01546723395586" lon="9.470318108797073">
        <ele>1482</ele>
        <time>2010-01-01T00:33:15Z</time>
      </trkpt>
      <trkpt lat="46.015665465965867" lon="9.470392623916268">
        <ele>1485</ele>
        <time>2010-01-01T00:33:23Z</time>
      </trkpt>
      <trkpt lat="46.015849700197577" lon="9.470467977225781">
        <ele>1487</ele>
        <time>2010-01-01T00:33:30Z</time>
      </trkpt>
      <trkpt lat="46.016046926379204" lon="9.470559675246477">
        <ele>1488</ele>
        <time>2010-01-01T00:33:39Z</time>
      </trkpt>
      <trkpt lat="46.016218503937125" lon="9.470676016062498">
        <ele>1488</ele>
        <time>2010-01-01T00:33:46Z</time>
      </trkpt>
      <trkpt lat="46.016359906643629" lon="9.470844240859151">
        <ele>1487</ele>
        <time>2010-01-01T00:33:54Z</time>
      </trkpt>
      <trkpt lat="46.016513966023922" lon="9.470988744869828">
        <ele>1489</ele>
        <time>2010-01-01T00:34:01Z</time>
      </trkpt>
      <trkpt lat="46.016573896631598" lon="9.471245398744941">
        <ele>1490</ele>
        <time>2010-01-01T00:34:09Z</time>
      </trkpt>
      <trkpt lat="46.016727285459638" lon="9.471395267173648">
        <ele>1491</ele>
        <time>2010-01-01T00:34:16Z</time>
      </trkpt>
      <trkpt lat="46.016844967380166" lon="9.471497358754277">
        <ele>1492</ele>
        <time>2010-01-01T00:34:21Z</time>
      </trkpt>
      <trkpt lat="46.017005564644933" lon="9.471626607701182">
        <ele>1493</ele>
        <time>2010-01-01T00:34:29Z</time>
      </trkpt>
      <trkpt lat="46.017186362296343" lon="9.471633480861783">
        <ele>1495</ele>
        <time>2010-01-01T00:34:36Z</time>
      </trkpt>
      <trkpt lat="46.017351904883981" lon="9.471753844991326">
        <ele>1497</ele>
        <time>2010-01-01T00:34:43Z</time>
      </trkpt>
      <trkpt lat="46.017354922369123" lon="9.472020054236054">
        <ele>1497</ele>
        <time>2010-01-01T00:34:51Z</time>
      </trkpt>
      <trkpt lat="46.017399597913027" lon="9.472274109721184">
        <ele>1497</ele>
        <time>2010-01-01T00:34:58Z</time>
      </trkpt>
      <trkpt lat="46.017534965649247" lon="9.472454404458404">
        <ele>1498</ele>
        <time>2010-01-01T00:35:06Z</time>
      </trkpt>
      <trkpt lat="46.01763186044991" lon="9.47267996147275">
        <ele>1499</ele>
        <time>2010-01-01T00:35:13Z</time>
      </trkpt>
      <trkpt lat="46.017746776342392" lon="9.472887665033341">
        <ele>1499</ele>
        <time>2010-01-01T00:35:20Z</time>
      </trkpt>
      <trkpt lat="46.017871415242553" lon="9.473076676949859">
        <ele>1499</ele>
        <time>2010-01-01T00:35:28Z</time>
      </trkpt>
      <trkpt lat="46.018014326691628" lon="9.47325169108808">
        <ele>1500</ele>
        <time>2010-01-01T00:35:35Z</time>
      </trkpt>
      <trkpt lat="46.018133936449885" lon="9.47344615124166">
        <ele>1500</ele>
        <time>2010-01-01T00:35:42Z</time>
      </trkpt>
      <trkpt lat="46.018240889534354" lon="9.473662739619613">
        <ele>1500</ele>
        <time>2010-01-01T00:35:50Z</time>
      </trkpt>
      <trkpt lat="46.018397966399789" lon="9.473807998001576">
        <ele>1501</ele>
        <time>2010-01-01T00:35:57Z</time>
      </trkpt>
      <trkpt lat="46.018556635826826" lon="9.473943365737796">
        <ele>1504</ele>
        <time>2010-01-01T00:36:05Z</time>
      </trkpt>
      <trkpt lat="46.01864037103951" lon="9.474176047369838">
        <ele>1504</ele>
        <time>2010-01-01T00:36:12Z</time>
      </trkpt>
      <trkpt lat="46.018757214769721" lon="9.47437260299921">
        <ele>1506</ele>
        <time>2010-01-01T00:36:19Z</time>
      </trkpt>
      <trkpt lat="46.018898114562035" lon="9.474539151415229">
        <ele>1507</ele>
        <time>2010-01-01T00:36:26Z</time>
      </trkpt>
      <trkpt lat="46.019028620794415" lon="9.4747185241431">
        <ele>1508</ele>
        <time>2010-01-01T00:36:34Z</time>
      </trkpt>
      <trkpt lat="46.01916516199708" lon="9.474900662899017">
        <ele>1508</ele>
        <time>2010-01-01T00:36:41Z</time>
      </trkpt>
      <trkpt lat="46.019332213327289" lon="9.475004263222218">
        <ele>1512</ele>
        <time>2010-01-01T00:36:48Z</time>
      </trkpt>
      <trkpt lat="46.019412763416767" lon="9.475241135805845">
        <ele>1514</ele>
        <time>2010-01-01T00:36:56Z</time>
      </trkpt>
      <trkpt lat="46.019553914666176" lon="9.475404331460595">
        <ele>1516</ele>
        <time>2010-01-01T00:37:03Z</time>
      </trkpt>
      <trkpt lat="46.019619628787041" lon="9.475650759413838">
        <ele>1517</ele>
        <time>2010-01-01T00:37:10Z</time>
      </trkpt>
      <trkpt lat="46.019757930189371" lon="9.475839687511325">
        <ele>1519</ele>
        <time>2010-01-01T00:37:18Z</time>
      </trkpt>
      <trkpt lat="46.019837558269501" lon="9.476072452962399">
        <ele>1520</ele>
        <time>2010-01-01T00:37:25Z</time>
      </trkpt>
      <trkpt lat="46.019842000678182" lon="9.476334387436509">
        <ele>1520</ele>
        <time>2010-01-01T00:37:32Z</time>
      </trkpt>
      <trkpt lat="46.019988683983684" lon="9.476492302492261">
        <ele>1523</ele>
        <time>2010-01-01T00:37:40Z</time>
      </trkpt>
      <trkpt lat="46.020126733928919" lon="9.476671759039164">
        <ele>1527</ele>
        <time>2010-01-01T00:37:47Z</time>
      </trkpt>
      <trkpt lat="46.020218264311552" lon="9.476902429014444">
        <ele>1530</ele>
        <time>2010-01-01T00:37:54Z</time>
      </trkpt>
      <trkpt lat="46.020296886563301" lon="9.47713628411293">
        <ele>1532</ele>
        <time>2010-01-01T00:38:02Z</time>
      </trkpt>
      <trkpt lat="46.020382381975651" lon="9.477371061220765">
        <ele>1534</ele>
        <time>2010-01-01T00:38:09Z</time>
      </trkpt>
      <trkpt lat="46.020426973700523" lon="9.477627715095878">
        <ele>1536</ele>
        <time>2010-01-01T00:38:16Z</time>
      </trkpt>
      <trkpt lat="46.020525461062789" lon="9.477861737832427">
        <ele>1540</ele>
        <time>2010-01-01T00:38:24Z</time>
      </trkpt>
      <trkpt lat="46.020510205999017" lon="9.478119732812047">
        <ele>1541</ele>
        <time>2010-01-01T00:38:31Z</time>
      </trkpt>
      <trkpt lat="46.020365869626403" lon="9.478301452472806">
        <ele>1539</ele>
        <time>2010-01-01T00:38:39Z</time>
      </trkpt>
      <trkpt lat="46.0202606767416" lon="9.478512676432729">
        <ele>1538</ele>
        <time>2010-01-01T00:38:46Z</time>
      </trkpt>
      <trkpt lat="46.02014341391623" lon="9.478717111051083">
        <ele>1536</ele>
        <time>2010-01-01T00:38:53Z</time>
      </trkpt>
      <trkpt lat="46.020146766677499" lon="9.478981643915176">
        <ele>1538</ele>
        <time>2010-01-01T00:39:01Z</time>
      </trkpt>
      <trkpt lat="46.020278614014387" lon="9.479163447394967">
        <ele>1543</ele>
        <time>2010-01-01T00:39:08Z</time>
      </trkpt>
      <trkpt lat="46.020405599847436" lon="9.479358242824674">
        <ele>1547</ele>
        <time>2010-01-01T00:39:16Z</time>
      </trkpt>
      <trkpt lat="46.02042336948216" lon="9.479617243632674">
        <ele>1549</ele>
        <time>2010-01-01T00:39:23Z</time>
      </trkpt>
      <trkpt lat="46.020418424159288" lon="9.479876663535833">
        <ele>1550</ele>
        <time>2010-01-01T00:39:30Z</time>
      </trkpt>
      <trkpt lat="46.020402582362294" lon="9.480135999619961">
        <ele>1550</ele>
        <time>2010-01-01T00:39:37Z</time>
      </trkpt>
      <trkpt lat="46.020407862961292" lon="9.480400448665023">
        <ele>1551</ele>
        <time>2010-01-01T00:39:45Z</time>
      </trkpt>
      <trkpt lat="46.020499477162957" lon="9.480625335127115">
        <ele>1553</ele>
        <time>2010-01-01T00:39:52Z</time>
      </trkpt>
      <trkpt lat="46.020626798272133" lon="9.480809988453984">
        <ele>1556</ele>
        <time>2010-01-01T00:39:59Z</time>
      </trkpt>
      <trkpt lat="46.020759902894497" lon="9.480985505506396">
        <ele>1558</ele>
        <time>2010-01-01T00:40:06Z</time>
      </trkpt>
      <trkpt lat="46.020774068310857" lon="9.481244757771492">
        <ele>1558</ele>
        <time>2010-01-01T00:40:14Z</time>
      </trkpt>
      <trkpt lat="46.020793179050088" lon="9.481514068320394">
        <ele>1558</ele>
        <time>2010-01-01T00:40:21Z</time>
      </trkpt>
      <trkpt lat="46.02084799669683" lon="9.481764016672969">
        <ele>1559</ele>
        <time>2010-01-01T00:40:28Z</time>
      </trkpt>
      <trkpt lat="46.020885379984975" lon="9.482028214260936">
        <ele>1560</ele>
        <time>2010-01-01T00:40:36Z</time>
      </trkpt>
      <trkpt lat="46.020968779921532" lon="9.482273971661925">
        <ele>1561</ele>
        <time>2010-01-01T00:40:43Z</time>
      </trkpt>
      <trkpt lat="46.021142620593309" lon="9.482349157333374">
        <ele>1565</ele>
        <time>2010-01-01T00:40:51Z</time>
      </trkpt>
      <trkpt lat="46.021256111562252" lon="9.482551077380776">
        <ele>1567</ele>
        <time>2010-01-01T00:40:58Z</time>
      </trkpt>
      <trkpt lat="46.021390641108155" lon="9.482725253328681">
        <ele>1571</ele>
        <time>2010-01-01T00:41:05Z</time>
      </trkpt>
      <trkpt lat="46.021507903933525" lon="9.482922898605466">
        <ele>1574</ele>
        <time>2010-01-01T00:41:12Z</time>
      </trkpt>
      <trkpt lat="46.021583592519164" lon="9.483166141435504">
        <ele>1577</ele>
        <time>2010-01-01T00:41:20Z</time>
      </trkpt>
      <trkpt lat="46.021575713530183" lon="9.483435703441501">
        <ele>1578</ele>
        <time>2010-01-01T00:41:27Z</time>
      </trkpt>
      <trkpt lat="46.021575210615993" lon="9.483709037303925">
        <ele>1580</ele>
        <time>2010-01-01T00:41:35Z</time>
      </trkpt>
      <trkpt lat="46.021602116525173" lon="9.483972899615765">
        <ele>1582</ele>
        <time>2010-01-01T00:41:42Z</time>
      </trkpt>
      <trkpt lat="46.021622065454721" lon="9.484231732785702">
        <ele>1584</ele>
        <time>2010-01-01T00:41:50Z</time>
      </trkpt>
      <trkpt lat="46.021690294146538" lon="9.484473969787359">
        <ele>1588</ele>
        <time>2010-01-01T00:41:57Z</time>
      </trkpt>
      <trkpt lat="46.021725330501795" lon="9.484727438539267">
        <ele>1592</ele>
        <time>2010-01-01T00:42:04Z</time>
      </trkpt>
      <trkpt lat="46.021758774295449" lon="9.48498216457665">
        <ele>1595</ele>
        <time>2010-01-01T00:42:11Z</time>
      </trkpt>
      <trkpt lat="46.021739998832345" lon="9.485241333022714">
        <ele>1596</ele>
        <time>2010-01-01T00:42:18Z</time>
      </trkpt>
      <trkpt lat="46.02171191945672" lon="9.485502177849412">
        <ele>1598</ele>
        <time>2010-01-01T00:42:26Z</time>
      </trkpt>
      <trkpt lat="46.021707309409976" lon="9.485764112323523">
        <ele>1599</ele>
        <time>2010-01-01T00:42:33Z</time>
      </trkpt>
      <trkpt lat="46.021740585565567" lon="9.486023364588618">
        <ele>1604</ele>
        <time>2010-01-01T00:42:40Z</time>
      </trkpt>
      <trkpt lat="46.021793475374579" lon="9.486275492236018">
        <ele>1609</ele>
        <time>2010-01-01T00:42:48Z</time>
      </trkpt>
      <trkpt lat="46.021627597510815" lon="9.486388480290771">
        <ele>1602</ele>
        <time>2010-01-01T00:42:55Z</time>
      </trkpt>
      <trkpt lat="46.021447889506817" lon="9.486425276845694">
        <ele>1597</ele>
        <time>2010-01-01T00:43:02Z</time>
      </trkpt>
      <trkpt lat="46.021399861201644" lon="9.48649300262332">
        <ele>1596</ele>
        <time>2010-01-01T00:43:05Z</time>
      </trkpt>
      <trkpt lat="46.021505389362574" lon="9.486283706501126">
        <ele>1597</ele>
        <time>2010-01-01T00:43:12Z</time>
      </trkpt>
      <trkpt lat="46.021687528118491" lon="9.486302314326167">
        <ele>1604</ele>
        <time>2010-01-01T00:43:20Z</time>
      </trkpt>
      <trkpt lat="46.0217544157058" lon="9.486058568581939">
        <ele>1605</ele>
        <time>2010-01-01T00:43:27Z</time>
      </trkpt>
      <trkpt lat="46.021714434027672" lon="9.485800238326192">
        <ele>1600</ele>
        <time>2010-01-01T00:43:34Z</time>
      </trkpt>
      <trkpt lat="46.021717870607972" lon="9.48553872294724">
        <ele>1598</ele>
        <time>2010-01-01T00:43:41Z</time>
      </trkpt>
      <trkpt lat="46.021680403500795" lon="9.485279554501176">
        <ele>1594</ele>
        <time>2010-01-01T00:43:49Z</time>
      </trkpt>
      <trkpt lat="46.02174217812717" lon="9.485036227852106">
        <ele>1595</ele>
        <time>2010-01-01T00:43:56Z</time>
      </trkpt>
      <trkpt lat="46.021739663556218" lon="9.484777981415391">
        <ele>1593</ele>
        <time>2010-01-01T00:44:03Z</time>
      </trkpt>
      <trkpt lat="46.021705465391278" lon="9.484508838504553">
        <ele>1589</ele>
        <time>2010-01-01T00:44:11Z</time>
      </trkpt>
      <trkpt lat="46.021617706865072" lon="9.484279174357653">
        <ele>1584</ele>
        <time>2010-01-01T00:44:18Z</time>
      </trkpt>
      <trkpt lat="46.021554004400969" lon="9.484022939577699">
        <ele>1581</ele>
        <time>2010-01-01T00:44:26Z</time>
      </trkpt>
      <trkpt lat="46.02155601605773" lon="9.483760669827461">
        <ele>1580</ele>
        <time>2010-01-01T00:44:33Z</time>
      </trkpt>
      <trkpt lat="46.021548891440034" lon="9.483501501381397">
        <ele>1578</ele>
        <time>2010-01-01T00:44:40Z</time>
      </trkpt>
      <trkpt lat="46.021544700488448" lon="9.483241494745016">
        <ele>1577</ele>
        <time>2010-01-01T00:44:47Z</time>
      </trkpt>
      <trkpt lat="46.021566996350884" lon="9.482974531129003">
        <ele>1576</ele>
        <time>2010-01-01T00:44:55Z</time>
      </trkpt>
      <trkpt lat="46.021532127633691" lon="9.48271544650197">
        <ele>1574</ele>
        <time>2010-01-01T00:45:02Z</time>
      </trkpt>
      <trkpt lat="46.021382929757237" lon="9.482543701305986">
        <ele>1570</ele>
        <time>2010-01-01T00:45:10Z</time>
      </trkpt>
      <trkpt lat="46.021225517615676" lon="9.482417050749064">
        <ele>1567</ele>
        <time>2010-01-01T00:45:17Z</time>
      </trkpt>
      <trkpt lat="46.021056789904833" lon="9.482299033552408">
        <ele>1563</ele>
        <time>2010-01-01T00:45:25Z</time>
      </trkpt>
      <trkpt lat="46.02092226035893" lon="9.482125779613853">
        <ele>1560</ele>
        <time>2010-01-01T00:45:32Z</time>
      </trkpt>
      <trkpt lat="46.020867694169283" lon="9.481876166537404">
        <ele>1559</ele>
        <time>2010-01-01T00:45:39Z</time>
      </trkpt>
      <trkpt lat="46.020824275910854" lon="9.481613645330071">
        <ele>1559</ele>
        <time>2010-01-01T00:45:47Z</time>
      </trkpt>
      <trkpt lat="46.020782869309187" lon="9.481346346437931">
        <ele>1558</ele>
        <time>2010-01-01T00:45:54Z</time>
      </trkpt>
      <trkpt lat="46.020748922601342" lon="9.481088183820248">
        <ele>1558</ele>
        <time>2010-01-01T00:46:01Z</time>
      </trkpt>
      <trkpt lat="46.020682705566287" lon="9.480844438076019">
        <ele>1557</ele>
        <time>2010-01-01T00:46:09Z</time>
      </trkpt>
      <trkpt lat="46.020548511296511" lon="9.480647966265678">
        <ele>1554</ele>
        <time>2010-01-01T00:46:16Z</time>
      </trkpt>
      <trkpt lat="46.020426135510206" lon="9.480455769225955">
        <ele>1552</ele>
        <time>2010-01-01T00:46:24Z</time>
      </trkpt>
      <trkpt lat="46.020395709201694" lon="9.480170533061028">
        <ele>1550</ele>
        <time>2010-01-01T00:46:32Z</time>
      </trkpt>
      <trkpt lat="46.020396212115884" lon="9.479903401806951">
        <ele>1549</ele>
        <time>2010-01-01T00:46:39Z</time>
      </trkpt>
      <trkpt lat="46.020425632596016" lon="9.479638282209635">
        <ele>1549</ele>
        <time>2010-01-01T00:46:47Z</time>
      </trkpt>
      <trkpt lat="46.020391182973981" lon="9.479383304715157">
        <ele>1547</ele>
        <time>2010-01-01T00:46:54Z</time>
      </trkpt>
      <trkpt lat="46.020260592922568" lon="9.479173673316836">
        <ele>1543</ele>
        <time>2010-01-01T00:47:02Z</time>
      </trkpt>
      <trkpt lat="46.020154813304543" lon="9.478957336395979">
        <ele>1538</ele>
        <time>2010-01-01T00:47:09Z</time>
      </trkpt>
      <trkpt lat="46.020096810534596" lon="9.47870478965342">
        <ele>1535</ele>
        <time>2010-01-01T00:47:16Z</time>
      </trkpt>
      <trkpt lat="46.020213905721903" lon="9.478497002273798">
        <ele>1536</ele>
        <time>2010-01-01T00:47:24Z</time>
      </trkpt>
      <trkpt lat="46.020333515480161" lon="9.478293489664793">
        <ele>1538</ele>
        <time>2010-01-01T00:47:31Z</time>
      </trkpt>
      <trkpt lat="46.02047223597765" lon="9.478114452213049">
        <ele>1540</ele>
        <time>2010-01-01T00:47:39Z</time>
      </trkpt>
      <trkpt lat="46.020521689206362" lon="9.477860480546951">
        <ele>1540</ele>
        <time>2010-01-01T00:47:46Z</time>
      </trkpt>
      <trkpt lat="46.02042923681438" lon="9.477624781429768">
        <ele>1536</ele>
        <time>2010-01-01T00:47:54Z</time>
      </trkpt>
      <trkpt lat="46.020365282893181" lon="9.477381873875856">
        <ele>1534</ele>
        <time>2010-01-01T00:48:01Z</time>
      </trkpt>
      <trkpt lat="46.02030711248517" lon="9.477119687944651">
        <ele>1532</ele>
        <time>2010-01-01T00:48:08Z</time>
      </trkpt>
      <trkpt lat="46.020214073359966" lon="9.476893963292241">
        <ele>1530</ele>
        <time>2010-01-01T00:48:16Z</time>
      </trkpt>
      <trkpt lat="46.020085662603378" lon="9.47670771740377">
        <ele>1526</ele>
        <time>2010-01-01T00:48:23Z</time>
      </trkpt>
      <trkpt lat="46.019949875771999" lon="9.476527003571391">
        <ele>1522</ele>
        <time>2010-01-01T00:48:30Z</time>
      </trkpt>
      <trkpt lat="46.019865805283189" lon="9.476290130987763">
        <ele>1521</ele>
        <time>2010-01-01T00:48:38Z</time>
      </trkpt>
      <trkpt lat="46.019846778362989" lon="9.476022413000464">
        <ele>1521</ele>
        <time>2010-01-01T00:48:45Z</time>
      </trkpt>
      <trkpt lat="46.019720882177353" lon="9.475830383598805">
        <ele>1518</ele>
        <time>2010-01-01T00:48:53Z</time>
      </trkpt>
      <trkpt lat="46.01959808729589" lon="9.475621841847897">
        <ele>1516</ele>
        <time>2010-01-01T00:49:00Z</time>
      </trkpt>
      <trkpt lat="46.019502868875861" lon="9.475395446643233">
        <ele>1515</ele>
        <time>2010-01-01T00:49:08Z</time>
      </trkpt>
      <trkpt lat="46.019410584121943" lon="9.475171063095331">
        <ele>1514</ele>
        <time>2010-01-01T00:49:15Z</time>
      </trkpt>
      <trkpt lat="46.019269768148661" lon="9.475005771964788">
        <ele>1511</ele>
        <time>2010-01-01T00:49:22Z</time>
      </trkpt>
      <trkpt lat="46.019140435382724" lon="9.474817849695683">
        <ele>1509</ele>
        <time>2010-01-01T00:49:29Z</time>
      </trkpt>
      <trkpt lat="46.019015377387404" lon="9.474630178883672">
        <ele>1508</ele>
        <time>2010-01-01T00:49:37Z</time>
      </trkpt>
      <trkpt lat="46.018884871155024" lon="9.47443856857717">
        <ele>1507</ele>
        <time>2010-01-01T00:49:44Z</time>
      </trkpt>
      <trkpt lat="46.018762495368719" lon="9.474235894158483">
        <ele>1506</ele>
        <time>2010-01-01T00:49:52Z</time>
      </trkpt>
      <trkpt lat="46.018643975257874" lon="9.474039673805237">
        <ele>1505</ele>
        <time>2010-01-01T00:49:59Z</time>
      </trkpt>
      <trkpt lat="46.018509613350034" lon="9.473848650231957">
        <ele>1503</ele>
        <time>2010-01-01T00:50:06Z</time>
      </trkpt>
      <trkpt lat="46.018394194543362" lon="9.473647484555841">
        <ele>1501</ele>
        <time>2010-01-01T00:50:14Z</time>
      </trkpt>
      <trkpt lat="46.018245331943035" lon="9.473502309992909">
        <ele>1500</ele>
        <time>2010-01-01T00:50:21Z</time>
      </trkpt>
      <trkpt lat="46.018122620880604" lon="9.473296282812953">
        <ele>1500</ele>
        <time>2010-01-01T00:50:28Z</time>
      </trkpt>
      <trkpt lat="46.017987169325352" lon="9.473117496818304">
        <ele>1500</ele>
        <time>2010-01-01T00:50:36Z</time>
      </trkpt>
      <trkpt lat="46.017866721376777" lon="9.472917001694441">
        <ele>1499</ele>
        <time>2010-01-01T00:50:43Z</time>
      </trkpt>
      <trkpt lat="46.017738897353411" lon="9.472720278427005">
        <ele>1499</ele>
        <time>2010-01-01T00:50:51Z</time>
      </trkpt>
      <trkpt lat="46.017642924562097" lon="9.472495559602976">
        <ele>1499</ele>
        <time>2010-01-01T00:50:58Z</time>
      </trkpt>
      <trkpt lat="46.01752582937479" lon="9.472287269309163">
        <ele>1498</ele>
        <time>2010-01-01T00:51:05Z</time>
      </trkpt>
      <trkpt lat="46.01747889071703" lon="9.472032710909843">
        <ele>1498</ele>
        <time>2010-01-01T00:51:13Z</time>
      </trkpt>
      <trkpt lat="46.017474615946412" lon="9.471757868304849">
        <ele>1498</ele>
        <time>2010-01-01T00:51:20Z</time>
      </trkpt>
      <trkpt lat="46.017353916540742" lon="9.471549913287163">
        <ele>1497</ele>
        <time>2010-01-01T00:51:28Z</time>
      </trkpt>
      <trkpt lat="46.017164066433907" lon="9.471556283533573">
        <ele>1495</ele>
        <time>2010-01-01T00:51:35Z</time>
      </trkpt>
      <trkpt lat="46.016988381743431" lon="9.471500962972641">
        <ele>1494</ele>
        <time>2010-01-01T00:51:43Z</time>
      </trkpt>
      <trkpt lat="46.016812697052956" lon="9.471409013494849">
        <ele>1492</ele>
        <time>2010-01-01T00:51:50Z</time>
      </trkpt>
      <trkpt lat="46.016680682078004" lon="9.471220001578331">
        <ele>1491</ele>
        <time>2010-01-01T00:51:58Z</time>
      </trkpt>
      <trkpt lat="46.016604322940111" lon="9.470979105681181">
        <ele>1490</ele>
        <time>2010-01-01T00:52:05Z</time>
      </trkpt>
      <trkpt lat="46.016429308801889" lon="9.470887826755643">
        <ele>1488</ele>
        <time>2010-01-01T00:52:12Z</time>
      </trkpt>
      <trkpt lat="46.016249684616923" lon="9.470835607498884">
        <ele>1485</ele>
        <time>2010-01-01T00:52:20Z</time>
      </trkpt>
      <trkpt lat="46.016115993261337" lon="9.470652965828776">
        <ele>1487</ele>
        <time>2010-01-01T00:52:27Z</time>
      </trkpt>
      <trkpt lat="46.015957659110427" lon="9.470529416576028">
        <ele>1487</ele>
        <time>2010-01-01T00:52:34Z</time>
      </trkpt>
      <trkpt lat="46.015867972746491" lon="9.470753381028771">
        <ele>1481</ele>
        <time>2010-01-01T00:52:42Z</time>
      </trkpt>
      <trkpt lat="46.015692874789238" lon="9.470874834805727">
        <ele>1476</ele>
        <time>2010-01-01T00:52:49Z</time>
      </trkpt>
      <trkpt lat="46.015516184270382" lon="9.470968628302217">
        <ele>1473</ele>
        <time>2010-01-01T00:52:57Z</time>
      </trkpt>
      <trkpt lat="46.015370506793261" lon="9.471137104555965">
        <ele>1473</ele>
        <time>2010-01-01T00:53:04Z</time>
      </trkpt>
      <trkpt lat="46.015190966427326" lon="9.471115311607719">
        <ele>1470</ele>
        <time>2010-01-01T00:53:12Z</time>
      </trkpt>
      <trkpt lat="46.015007067471743" lon="9.471048591658473">
        <ele>1464</ele>
        <time>2010-01-01T00:53:19Z</time>
      </trkpt>
      <trkpt lat="46.014822162687778" lon="9.471068372949958">
        <ele>1463</ele>
        <time>2010-01-01T00:53:27Z</time>
      </trkpt>
      <trkpt lat="46.014691237360239" lon="9.470868716016412">
        <ele>1455</ele>
        <time>2010-01-01T00:53:34Z</time>
      </trkpt>
      <trkpt lat="46.014683693647385" lon="9.470610469579697">
        <ele>1457</ele>
        <time>2010-01-01T00:53:41Z</time>
      </trkpt>
      <trkpt lat="46.014624433591962" lon="9.470347780734301">
        <ele>1459</ele>
        <time>2010-01-01T00:53:49Z</time>
      </trkpt>
      <trkpt lat="46.014455873519182" lon="9.470242587849498">
        <ele>1454</ele>
        <time>2010-01-01T00:53:56Z</time>
      </trkpt>
      <trkpt lat="46.01428622379899" lon="9.470151728019118">
        <ele>1447</ele>
        <time>2010-01-01T00:54:04Z</time>
      </trkpt>
      <trkpt lat="46.014138367027044" lon="9.470313917845488">
        <ele>1442</ele>
        <time>2010-01-01T00:54:11Z</time>
      </trkpt>
      <trkpt lat="46.014049015939236" lon="9.470545928925276">
        <ele>1441</ele>
        <time>2010-01-01T00:54:18Z</time>
      </trkpt>
      <trkpt lat="46.013960586860776" lon="9.470780957490206">
        <ele>1442</ele>
        <time>2010-01-01T00:54:26Z</time>
      </trkpt>
      <trkpt lat="46.013825386762619" lon="9.470953708514571">
        <ele>1445</ele>
        <time>2010-01-01T00:54:33Z</time>
      </trkpt>
      <trkpt lat="46.013672668486834" lon="9.471097039058805">
        <ele>1448</ele>
        <time>2010-01-01T00:54:40Z</time>
      </trkpt>
      <trkpt lat="46.013509640470147" lon="9.471214134246111">
        <ele>1451</ele>
        <time>2010-01-01T00:54:48Z</time>
      </trkpt>
      <trkpt lat="46.013327585533261" lon="9.471268281340599">
        <ele>1450</ele>
        <time>2010-01-01T00:54:55Z</time>
      </trkpt>
      <trkpt lat="46.013204958289862" lon="9.471462741494179">
        <ele>1454</ele>
        <time>2010-01-01T00:55:02Z</time>
      </trkpt>
      <trkpt lat="46.013090377673507" lon="9.471665667369962">
        <ele>1459</ele>
        <time>2010-01-01T00:55:10Z</time>
      </trkpt>
      <trkpt lat="46.01299767382443" lon="9.471890889108181">
        <ele>1465</ele>
        <time>2010-01-01T00:55:17Z</time>
      </trkpt>
      <trkpt lat="46.012921566143632" lon="9.47164454497397">
        <ele>1451</ele>
        <time>2010-01-01T00:55:25Z</time>
      </trkpt>
      <trkpt lat="46.012894324958324" lon="9.471381101757288">
        <ele>1439</ele>
        <time>2010-01-01T00:55:32Z</time>
      </trkpt>
      <trkpt lat="46.012848475947976" lon="9.471127297729254">
        <ele>1426</ele>
        <time>2010-01-01T00:55:39Z</time>
      </trkpt>
      <trkpt lat="46.012772871181369" lon="9.470875170081854">
        <ele>1413</ele>
        <time>2010-01-01T00:55:47Z</time>
      </trkpt>
      <trkpt lat="46.012665834277868" lon="9.470658330246806">
        <ele>1405</ele>
        <time>2010-01-01T00:55:54Z</time>
      </trkpt>
      <trkpt lat="46.012541865929961" lon="9.470452386885881">
        <ele>1398</ele>
        <time>2010-01-01T00:56:02Z</time>
      </trkpt>
      <trkpt lat="46.012408593669534" lon="9.470277791842818">
        <ele>1395</ele>
        <time>2010-01-01T00:56:09Z</time>
      </trkpt>
      <trkpt lat="46.012228215113282" lon="9.470208724960685">
        <ele>1394</ele>
        <time>2010-01-01T00:56:16Z</time>
      </trkpt>
      <trkpt lat="46.01204632781446" lon="9.470194978639484">
        <ele>1395</ele>
        <time>2010-01-01T00:56:24Z</time>
      </trkpt>
      <trkpt lat="46.011887826025486" lon="9.470052067190409">
        <ele>1390</ele>
        <time>2010-01-01T00:56:31Z</time>
      </trkpt>
      <trkpt lat="46.011719014495611" lon="9.469917034730315">
        <ele>1388</ele>
        <time>2010-01-01T00:56:39Z</time>
      </trkpt>
      <trkpt lat="46.011545760557055" lon="9.469812512397766">
        <ele>1386</ele>
        <time>2010-01-01T00:56:47Z</time>
      </trkpt>
      <trkpt lat="46.01136077195406" lon="9.469833634793758">
        <ele>1386</ele>
        <time>2010-01-01T00:56:54Z</time>
      </trkpt>
      <trkpt lat="46.011190116405487" lon="9.46974964812398">
        <ele>1384</ele>
        <time>2010-01-01T00:57:01Z</time>
      </trkpt>
      <trkpt lat="46.011049719527364" lon="9.469569604843855">
        <ele>1379</ele>
        <time>2010-01-01T00:57:09Z</time>
      </trkpt>
      <trkpt lat="46.01090831682086" lon="9.469381095841527">
        <ele>1372</ele>
        <time>2010-01-01T00:57:16Z</time>
      </trkpt>
      <trkpt lat="46.010785438120365" lon="9.469178002327681">
        <ele>1366</ele>
        <time>2010-01-01T00:57:24Z</time>
      </trkpt>
      <trkpt lat="46.010654428973794" lon="9.46899276226759">
        <ele>1371</ele>
        <time>2010-01-01T00:57:31Z</time>
      </trkpt>
      <trkpt lat="46.010554516687989" lon="9.468767708167434">
        <ele>1373</ele>
        <time>2010-01-01T00:57:39Z</time>
      </trkpt>
      <trkpt lat="46.010425435379148" lon="9.468572326004505">
        <ele>1372</ele>
        <time>2010-01-01T00:57:46Z</time>
      </trkpt>
      <trkpt lat="46.010275483131409" lon="9.468425642699003">
        <ele>1368</ele>
        <time>2010-01-01T00:57:53Z</time>
      </trkpt>
      <trkpt lat="46.01014506071806" lon="9.468240067362785">
        <ele>1364</ele>
        <time>2010-01-01T00:58:01Z</time>
      </trkpt>
      <trkpt lat="46.00999066606164" lon="9.46807662025094">
        <ele>1359</ele>
        <time>2010-01-01T00:58:08Z</time>
      </trkpt>
      <trkpt lat="46.009818417951465" lon="9.467988274991512">
        <ele>1358</ele>
        <time>2010-01-01T00:58:16Z</time>
      </trkpt>
      <trkpt lat="46.009641392156482" lon="9.468034459277988">
        <ele>1357</ele>
        <time>2010-01-01T00:58:23Z</time>
      </trkpt>
      <trkpt lat="46.009760415181518" lon="9.467827845364809">
        <ele>1356</ele>
        <time>2010-01-01T00:58:30Z</time>
      </trkpt>
      <trkpt lat="46.009809533134103" lon="9.467579238116741">
        <ele>1356</ele>
        <time>2010-01-01T00:58:38Z</time>
      </trkpt>
      <trkpt lat="46.009653797373176" lon="9.467442529276013">
        <ele>1351</ele>
        <time>2010-01-01T00:58:45Z</time>
      </trkpt>
      <trkpt lat="46.009490098804235" lon="9.46756599470973">
        <ele>1345</ele>
        <time>2010-01-01T00:58:52Z</time>
      </trkpt>
      <trkpt lat="46.009341320022941" lon="9.467729777097702">
        <ele>1345</ele>
        <time>2010-01-01T00:59:00Z</time>
      </trkpt>
      <trkpt lat="46.009163120761514" lon="9.467639252543449">
        <ele>1337</ele>
        <time>2010-01-01T00:59:07Z</time>
      </trkpt>
      <trkpt lat="46.009000176563859" lon="9.467527437955141">
        <ele>1329</ele>
        <time>2010-01-01T00:59:15Z</time>
      </trkpt>
      <trkpt lat="46.00881258957088" lon="9.467568006366491">
        <ele>1328</ele>
        <time>2010-01-01T00:59:22Z</time>
      </trkpt>
      <trkpt lat="46.008637491613626" lon="9.467680742964149">
        <ele>1330</ele>
        <time>2010-01-01T00:59:30Z</time>
      </trkpt>
      <trkpt lat="46.008506985381246" lon="9.467877130955458">
        <ele>1337</ele>
        <time>2010-01-01T00:59:37Z</time>
      </trkpt>
      <trkpt lat="46.008590133860707" lon="9.467633552849293">
        <ele>1327</ele>
        <time>2010-01-01T00:59:45Z</time>
      </trkpt>
      <trkpt lat="46.00869876332581" lon="9.467422999441624">
        <ele>1323</ele>
        <time>2010-01-01T00:59:52Z</time>
      </trkpt>
      <trkpt lat="46.008548811078072" lon="9.467275310307741">
        <ele>1322</ele>
        <time>2010-01-01T01:00:00Z</time>
      </trkpt>
      <trkpt lat="46.008450491353869" lon="9.467497263103724">
        <ele>1318</ele>
        <time>2010-01-01T01:00:07Z</time>
      </trkpt>
      <trkpt lat="46.008295090869069" lon="9.467651741579175">
        <ele>1322</ele>
        <time>2010-01-01T01:00:14Z</time>
      </trkpt>
      <trkpt lat="46.008130637928843" lon="9.467773027718067">
        <ele>1323</ele>
        <time>2010-01-01T01:00:22Z</time>
      </trkpt>
      <trkpt lat="46.007957467809319" lon="9.467846704646945">
        <ele>1321</ele>
        <time>2010-01-01T01:00:29Z</time>
      </trkpt>
      <trkpt lat="46.007771473377943" lon="9.467848297208548">
        <ele>1315</ele>
        <time>2010-01-01T01:00:36Z</time>
      </trkpt>
      <trkpt lat="46.007598973810673" lon="9.467939408496022">
        <ele>1313</ele>
        <time>2010-01-01T01:00:44Z</time>
      </trkpt>
      <trkpt lat="46.007416164502501" lon="9.467971678823233">
        <ele>1309</ele>
        <time>2010-01-01T01:00:51Z</time>
      </trkpt>
      <trkpt lat="46.007232768461108" lon="9.46801794692874">
        <ele>1305</ele>
        <time>2010-01-01T01:00:59Z</time>
      </trkpt>
      <trkpt lat="46.007047276943922" lon="9.46799648925662">
        <ele>1298</ele>
        <time>2010-01-01T01:01:06Z</time>
      </trkpt>
      <trkpt lat="46.006860109046102" lon="9.467945611104369">
        <ele>1291</ele>
        <time>2010-01-01T01:01:14Z</time>
      </trkpt>
      <trkpt lat="46.00669733248651" lon="9.467820720747113">
        <ele>1282</ele>
        <time>2010-01-01T01:01:21Z</time>
      </trkpt>
      <trkpt lat="46.006521312519908" lon="9.467761209234595">
        <ele>1276</ele>
        <time>2010-01-01T01:01:28Z</time>
      </trkpt>
      <trkpt lat="46.00634403526783" lon="9.467667080461979">
        <ele>1269</ele>
        <time>2010-01-01T01:01:36Z</time>
      </trkpt>
      <trkpt lat="46.006163069978356" lon="9.467651657760143">
        <ele>1264</ele>
        <time>2010-01-01T01:01:43Z</time>
      </trkpt>
      <trkpt lat="46.00598051212728" lon="9.467665571719408">
        <ele>1260</ele>
        <time>2010-01-01T01:01:51Z</time>
      </trkpt>
      <trkpt lat="46.005808766931295" lon="9.467582171782851">
        <ele>1253</ele>
        <time>2010-01-01T01:01:58Z</time>
      </trkpt>
      <trkpt lat="46.005616402253509" lon="9.46749608963728">
        <ele>1249</ele>
        <time>2010-01-01T01:02:06Z</time>
      </trkpt>
      <trkpt lat="46.005444237962365" lon="9.467593906447291">
        <ele>1249</ele>
        <time>2010-01-01T01:02:13Z</time>
      </trkpt>
      <trkpt lat="46.005280707031488" lon="9.467719132080674">
        <ele>1252</ele>
        <time>2010-01-01T01:02:21Z</time>
      </trkpt>
      <trkpt lat="46.005121618509293" lon="9.467857182025909">
        <ele>1255</ele>
        <time>2010-01-01T01:02:28Z</time>
      </trkpt>
      <trkpt lat="46.004956075921655" lon="9.467989448457956">
        <ele>1257</ele>
        <time>2010-01-01T01:02:36Z</time>
      </trkpt>
      <trkpt lat="46.004782905802131" lon="9.467903282493353">
        <ele>1252</ele>
        <time>2010-01-01T01:02:43Z</time>
      </trkpt>
      <trkpt lat="46.004644017666578" lon="9.46773212403059">
        <ele>1245</ele>
        <time>2010-01-01T01:02:50Z</time>
      </trkpt>
      <trkpt lat="46.004490293562412" lon="9.467578232288361">
        <ele>1238</ele>
        <time>2010-01-01T01:02:58Z</time>
      </trkpt>
      <trkpt lat="46.00432843901217" lon="9.467462645843625">
        <ele>1235</ele>
        <time>2010-01-01T01:03:05Z</time>
      </trkpt>
      <trkpt lat="46.004145462065935" lon="9.467485025525093">
        <ele>1232</ele>
        <time>2010-01-01T01:03:12Z</time>
      </trkpt>
      <trkpt lat="46.003989558666945" lon="9.467664733529091">
        <ele>1235</ele>
        <time>2010-01-01T01:03:20Z</time>
      </trkpt>
      <trkpt lat="46.003837930038571" lon="9.467811081558466">
        <ele>1238</ele>
        <time>2010-01-01T01:03:28Z</time>
      </trkpt>
      <trkpt lat="46.003653611987829" lon="9.467863887548447">
        <ele>1238</ele>
        <time>2010-01-01T01:03:35Z</time>
      </trkpt>
      <trkpt lat="46.003467198461294" lon="9.467839580029249">
        <ele>1235</ele>
        <time>2010-01-01T01:03:43Z</time>
      </trkpt>
      <trkpt lat="46.003284305334091" lon="9.467756012454629">
        <ele>1230</ele>
        <time>2010-01-01T01:03:50Z</time>
      </trkpt>
      <trkpt lat="46.003104681149125" lon="9.467723155394197">
        <ele>1229</ele>
        <time>2010-01-01T01:03:58Z</time>
      </trkpt>
      <trkpt lat="46.002916675060987" lon="9.467723071575165">
        <ele>1228</ele>
        <time>2010-01-01T01:04:05Z</time>
      </trkpt>
      <trkpt lat="46.002735290676355" lon="9.467686610296369">
        <ele>1227</ele>
        <time>2010-01-01T01:04:12Z</time>
      </trkpt>
      <trkpt lat="46.00257377140224" lon="9.467549314722419">
        <ele>1222</ele>
        <time>2010-01-01T01:04:20Z</time>
      </trkpt>
      <trkpt lat="46.002408480271697" lon="9.467437751591206">
        <ele>1221</ele>
        <time>2010-01-01T01:04:27Z</time>
      </trkpt>
      <trkpt lat="46.002273363992572" lon="9.467265335842967">
        <ele>1221</ele>
        <time>2010-01-01T01:04:35Z</time>
      </trkpt>
      <trkpt lat="46.002200273796916" lon="9.467025697231293">
        <ele>1221</ele>
        <time>2010-01-01T01:04:42Z</time>
      </trkpt>
      <trkpt lat="46.002079658210278" lon="9.466833667829633">
        <ele>1220</ele>
        <time>2010-01-01T01:04:49Z</time>
      </trkpt>
      <trkpt lat="46.001903135329485" lon="9.466747837141156">
        <ele>1215</ele>
        <time>2010-01-01T01:04:56Z</time>
      </trkpt>
      <trkpt lat="46.001714207231998" lon="9.466656306758523">
        <ele>1211</ele>
        <time>2010-01-01T01:05:04Z</time>
      </trkpt>
      <trkpt lat="46.001523686572909" lon="9.466625126078725">
        <ele>1205</ele>
        <time>2010-01-01T01:05:12Z</time>
      </trkpt>
      <trkpt lat="46.001345822587609" lon="9.466559244319797">
        <ele>1201</ele>
        <time>2010-01-01T01:05:19Z</time>
      </trkpt>
      <trkpt lat="46.001167204231024" lon="9.466520352289081">
        <ele>1195</ele>
        <time>2010-01-01T01:05:27Z</time>
      </trkpt>
      <trkpt lat="46.000982467085123" lon="9.466549772769213">
        <ele>1185</ele>
        <time>2010-01-01T01:05:34Z</time>
      </trkpt>
      <trkpt lat="46.000802088528872" lon="9.466574415564537">
        <ele>1177</ele>
        <time>2010-01-01T01:05:41Z</time>
      </trkpt>
      <trkpt lat="46.000634534284472" lon="9.466698383912444">
        <ele>1175</ele>
        <time>2010-01-01T01:05:49Z</time>
      </trkpt>
      <trkpt lat="46.000443175435066" lon="9.466730654239655">
        <ele>1176</ele>
        <time>2010-01-01T01:05:57Z</time>
      </trkpt>
      <trkpt lat="46.000284925103188" lon="9.466602997854352">
        <ele>1172</ele>
        <time>2010-01-01T01:06:04Z</time>
      </trkpt>
      <trkpt lat="46.000171266496181" lon="9.466387582942843">
        <ele>1168</ele>
        <time>2010-01-01T01:06:11Z</time>
      </trkpt>
      <trkpt lat="46.000068839639425" lon="9.466170407831669">
        <ele>1162</ele>
        <time>2010-01-01T01:06:19Z</time>
      </trkpt>
      <trkpt lat="46.000005640089512" lon="9.465928506106138">
        <ele>1154</ele>
        <time>2010-01-01T01:06:26Z</time>
      </trkpt>
      <trkpt lat="45.999911595135927" lon="9.465697165578604">
        <ele>1155</ele>
        <time>2010-01-01T01:06:33Z</time>
      </trkpt>
      <trkpt lat="45.999809671193361" lon="9.465477308258414">
        <ele>1158</ele>
        <time>2010-01-01T01:06:41Z</time>
      </trkpt>
      <trkpt lat="45.999639937654138" lon="9.465373791754246">
        <ele>1155</ele>
        <time>2010-01-01T01:06:48Z</time>
      </trkpt>
      <trkpt lat="45.999467773362994" lon="9.465291732922196">
        <ele>1149</ele>
        <time>2010-01-01T01:06:55Z</time>
      </trkpt>
      <trkpt lat="45.999296866357327" lon="9.465210847556591">
        <ele>1143</ele>
        <time>2010-01-01T01:07:03Z</time>
      </trkpt>
      <trkpt lat="45.99916560575366" lon="9.465033235028386">
        <ele>1136</ele>
        <time>2010-01-01T01:07:10Z</time>
      </trkpt>
      <trkpt lat="45.998994698747993" lon="9.464936759322882">
        <ele>1137</ele>
        <time>2010-01-01T01:07:17Z</time>
      </trkpt>
      <trkpt lat="45.998817505314946" lon="9.46486534550786">
        <ele>1137</ele>
        <time>2010-01-01T01:07:24Z</time>
      </trkpt>
      <trkpt lat="45.99862908013165" lon="9.464827291667461">
        <ele>1135</ele>
        <time>2010-01-01T01:07:32Z</time>
      </trkpt>
      <trkpt lat="45.998443504795432" lon="9.464816730469465">
        <ele>1132</ele>
        <time>2010-01-01T01:07:40Z</time>
      </trkpt>
      <trkpt lat="45.99826748482883" lon="9.464758560061455">
        <ele>1130</ele>
        <time>2010-01-01T01:07:47Z</time>
      </trkpt>
      <trkpt lat="45.998089034110308" lon="9.464714806526899">
        <ele>1128</ele>
        <time>2010-01-01T01:07:54Z</time>
      </trkpt>
      <trkpt lat="45.997914271429181" lon="9.464638782665134">
        <ele>1126</ele>
        <time>2010-01-01T01:08:01Z</time>
      </trkpt>
      <trkpt lat="45.997767169028521" lon="9.464460667222738">
        <ele>1122</ele>
        <time>2010-01-01T01:08:09Z</time>
      </trkpt>
      <trkpt lat="45.997626101598144" lon="9.464298896491528">
        <ele>1117</ele>
        <time>2010-01-01T01:08:16Z</time>
      </trkpt>
      <trkpt lat="45.997477322816849" lon="9.464130001142621">
        <ele>1111</ele>
        <time>2010-01-01T01:08:24Z</time>
      </trkpt>
      <trkpt lat="45.997387133538723" lon="9.463893547654152">
        <ele>1114</ele>
        <time>2010-01-01T01:08:31Z</time>
      </trkpt>
      <trkpt lat="45.997406328096986" lon="9.463625159114599">
        <ele>1117</ele>
        <time>2010-01-01T01:08:39Z</time>
      </trkpt>
      <trkpt lat="45.997294597327709" lon="9.46341410279274">
        <ele>1116</ele>
        <time>2010-01-01T01:08:46Z</time>
      </trkpt>
      <trkpt lat="45.997116398066282" lon="9.46333447471261">
        <ele>1112</ele>
        <time>2010-01-01T01:08:54Z</time>
      </trkpt>
      <trkpt lat="45.996938701719046" lon="9.463267335668206">
        <ele>1108</ele>
        <time>2010-01-01T01:09:01Z</time>
      </trkpt>
      <trkpt lat="45.996789503842592" lon="9.463105900213122">
        <ele>1106</ele>
        <time>2010-01-01T01:09:09Z</time>
      </trkpt>
      <trkpt lat="45.996660841628909" lon="9.462922671809793">
        <ele>1103</ele>
        <time>2010-01-01T01:09:16Z</time>
      </trkpt>
      <trkpt lat="45.99650451913476" lon="9.46278277784586">
        <ele>1103</ele>
        <time>2010-01-01T01:09:23Z</time>
      </trkpt>
      <trkpt lat="45.996347861364484" lon="9.462641878053546">
        <ele>1100</ele>
        <time>2010-01-01T01:09:31Z</time>
      </trkpt>
      <trkpt lat="45.996174020692706" lon="9.462529057636857">
        <ele>1096</ele>
        <time>2010-01-01T01:09:38Z</time>
      </trkpt>
      <trkpt lat="45.996038904413581" lon="9.462334848940373">
        <ele>1095</ele>
        <time>2010-01-01T01:09:46Z</time>
      </trkpt>
      <trkpt lat="45.996085172519088" lon="9.462071992456913">
        <ele>1100</ele>
        <time>2010-01-01T01:09:53Z</time>
      </trkpt>
      <trkpt lat="45.99611509591341" lon="9.461817434057593">
        <ele>1104</ele>
        <time>2010-01-01T01:10:01Z</time>
      </trkpt>
      <trkpt lat="45.995976291596889" lon="9.461639653891325">
        <ele>1101</ele>
        <time>2010-01-01T01:10:08Z</time>
      </trkpt>
      <trkpt lat="45.995860118418932" lon="9.461425831541419">
        <ele>1103</ele>
        <time>2010-01-01T01:10:16Z</time>
      </trkpt>
      <trkpt lat="45.995716201141477" lon="9.461245369166136">
        <ele>1104</ele>
        <time>2010-01-01T01:10:23Z</time>
      </trkpt>
      <trkpt lat="45.995573373511434" lon="9.461087705567479">
        <ele>1103</ele>
        <time>2010-01-01T01:10:30Z</time>
      </trkpt>
      <trkpt lat="45.995428701862693" lon="9.460908165201545">
        <ele>1102</ele>
        <time>2010-01-01T01:10:38Z</time>
      </trkpt>
      <trkpt lat="45.995263662189245" lon="9.460793752223253">
        <ele>1097</ele>
        <time>2010-01-01T01:10:45Z</time>
      </trkpt>
      <trkpt lat="45.995072722434998" lon="9.460743293166161">
        <ele>1089</ele>
        <time>2010-01-01T01:10:53Z</time>
      </trkpt>
      <trkpt lat="45.994884464889765" lon="9.460718147456646">
        <ele>1083</ele>
        <time>2010-01-01T01:11:01Z</time>
      </trkpt>
      <trkpt lat="45.99469562061131" lon="9.460751004517078">
        <ele>1076</ele>
        <time>2010-01-01T01:11:08Z</time>
      </trkpt>
      <trkpt lat="45.994539717212319" lon="9.460888551548123">
        <ele>1068</ele>
        <time>2010-01-01T01:11:16Z</time>
      </trkpt>
      <trkpt lat="45.99436822347343" lon="9.460987122729421">
        <ele>1060</ele>
        <time>2010-01-01T01:11:23Z</time>
      </trkpt>
      <trkpt lat="45.994180217385292" lon="9.460962563753128">
        <ele>1055</ele>
        <time>2010-01-01T01:11:31Z</time>
      </trkpt>
      <trkpt lat="45.994000006467104" lon="9.46089961566031">
        <ele>1054</ele>
        <time>2010-01-01T01:11:38Z</time>
      </trkpt>
      <trkpt lat="45.993828261271119" lon="9.460802720859647">
        <ele>1055</ele>
        <time>2010-01-01T01:11:45Z</time>
      </trkpt>
      <trkpt lat="45.993646876886487" lon="9.460731390863657">
        <ele>1056</ele>
        <time>2010-01-01T01:11:53Z</time>
      </trkpt>
      <trkpt lat="45.993466582149267" lon="9.460720829665661">
        <ele>1054</ele>
        <time>2010-01-01T01:12:00Z</time>
      </trkpt>
      <trkpt lat="45.993279665708542" lon="9.460777072235942">
        <ele>1050</ele>
        <time>2010-01-01T01:12:08Z</time>
      </trkpt>
      <trkpt lat="45.993096688762307" lon="9.460752010345459">
        <ele>1051</ele>
        <time>2010-01-01T01:12:15Z</time>
      </trkpt>
      <trkpt lat="45.992933493107557" lon="9.46063038893044">
        <ele>1056</ele>
        <time>2010-01-01T01:12:22Z</time>
      </trkpt>
      <trkpt lat="45.992747666314244" lon="9.460616139695048">
        <ele>1056</ele>
        <time>2010-01-01T01:12:30Z</time>
      </trkpt>
      <trkpt lat="45.992568880319595" lon="9.460653690621257">
        <ele>1054</ele>
        <time>2010-01-01T01:12:37Z</time>
      </trkpt>
      <trkpt lat="45.992403421550989" lon="9.460762236267328">
        <ele>1051</ele>
        <time>2010-01-01T01:12:44Z</time>
      </trkpt>
      <trkpt lat="45.992310298606753" lon="9.461014196276665">
        <ele>1042</ele>
        <time>2010-01-01T01:12:52Z</time>
      </trkpt>
      <trkpt lat="45.992179540917277" lon="9.461248051375151">
        <ele>1035</ele>
        <time>2010-01-01T01:13:01Z</time>
      </trkpt>
      <trkpt lat="45.99204434081912" lon="9.461461119353771">
        <ele>1030</ele>
        <time>2010-01-01T01:13:09Z</time>
      </trkpt>
      <trkpt lat="45.991874020546675" lon="9.461593637242913">
        <ele>1028</ele>
        <time>2010-01-01T01:13:16Z</time>
      </trkpt>
      <trkpt lat="45.99168567918241" lon="9.461590619757772">
        <ele>1032</ele>
        <time>2010-01-01T01:13:24Z</time>
      </trkpt>
      <trkpt lat="45.991497589275241" lon="9.461493641138077">
        <ele>1033</ele>
        <time>2010-01-01T01:13:32Z</time>
      </trkpt>
      <trkpt lat="45.991320563480258" lon="9.461401021108031">
        <ele>1033</ele>
        <time>2010-01-01T01:13:40Z</time>
      </trkpt>
      <trkpt lat="45.99113741889596" lon="9.461372271180153">
        <ele>1032</ele>
        <time>2010-01-01T01:13:47Z</time>
      </trkpt>
      <trkpt lat="45.99095762707293" lon="9.461408061906695">
        <ele>1028</ele>
        <time>2010-01-01T01:13:54Z</time>
      </trkpt>
      <trkpt lat="45.99077045917511" lon="9.46144494228065">
        <ele>1024</ele>
        <time>2010-01-01T01:14:02Z</time>
      </trkpt>
      <trkpt lat="45.990703906863928" lon="9.461689274758101">
        <ele>1013</ele>
        <time>2010-01-01T01:14:09Z</time>
      </trkpt>
      <trkpt lat="45.990565437823534" lon="9.461865378543735">
        <ele>1002</ele>
        <time>2010-01-01T01:14:16Z</time>
      </trkpt>
      <trkpt lat="45.99039712920785" lon="9.461975516751409">
        <ele>994</ele>
        <time>2010-01-01T01:14:24Z</time>
      </trkpt>
      <trkpt lat="45.990227060392499" lon="9.462067969143391">
        <ele>988</ele>
        <time>2010-01-01T01:14:31Z</time>
      </trkpt>
      <trkpt lat="45.990042239427567" lon="9.462158158421516">
        <ele>983</ele>
        <time>2010-01-01T01:14:39Z</time>
      </trkpt>
      <trkpt lat="45.989862699061632" lon="9.462191686034203">
        <ele>978</ele>
        <time>2010-01-01T01:14:46Z</time>
      </trkpt>
      <trkpt lat="45.989681985229254" lon="9.462208198383451">
        <ele>973</ele>
        <time>2010-01-01T01:14:53Z</time>
      </trkpt>
      <trkpt lat="45.98950881510973" lon="9.462131587788463">
        <ele>973</ele>
        <time>2010-01-01T01:15:01Z</time>
      </trkpt>
      <trkpt lat="45.989325419068336" lon="9.462060760706663">
        <ele>972</ele>
        <time>2010-01-01T01:15:08Z</time>
      </trkpt>
      <trkpt lat="45.9891442861408" lon="9.462017342448235">
        <ele>970</ele>
        <time>2010-01-01T01:15:16Z</time>
      </trkpt>
      <trkpt lat="45.988962482661009" lon="9.462050953879952">
        <ele>964</ele>
        <time>2010-01-01T01:15:23Z</time>
      </trkpt>
      <trkpt lat="45.98877489566803" lon="9.462062520906329">
        <ele>958</ele>
        <time>2010-01-01T01:15:31Z</time>
      </trkpt>
      <trkpt lat="45.988591499626637" lon="9.462055899202824">
        <ele>954</ele>
        <time>2010-01-01T01:15:38Z</time>
      </trkpt>
      <trkpt lat="45.988420760259032" lon="9.461970319971442">
        <ele>953</ele>
        <time>2010-01-01T01:15:45Z</time>
      </trkpt>
      <trkpt lat="45.988243566825986" lon="9.46189396083355">
        <ele>951</ele>
        <time>2010-01-01T01:15:52Z</time>
      </trkpt>
      <trkpt lat="45.988063607364893" lon="9.461928158998489">
        <ele>943</ele>
        <time>2010-01-01T01:16:00Z</time>
      </trkpt>
      <trkpt lat="45.987887335941195" lon="9.461842579767108">
        <ele>940</ele>
        <time>2010-01-01T01:16:07Z</time>
      </trkpt>
      <trkpt lat="45.98774392157793" lon="9.461680557578802">
        <ele>941</ele>
        <time>2010-01-01T01:16:15Z</time>
      </trkpt>
      <trkpt lat="45.987562872469425" lon="9.46162766776979">
        <ele>935</ele>
        <time>2010-01-01T01:16:22Z</time>
      </trkpt>
      <trkpt lat="45.987401437014341" lon="9.461513087153435">
        <ele>932</ele>
        <time>2010-01-01T01:16:29Z</time>
      </trkpt>
      <trkpt lat="45.987235810607672" lon="9.461403368040919">
        <ele>929</ele>
        <time>2010-01-01T01:16:36Z</time>
      </trkpt>
      <trkpt lat="45.987085187807679" lon="9.46156756952405">
        <ele>915</ele>
        <time>2010-01-01T01:16:44Z</time>
      </trkpt>
      <trkpt lat="45.986930625513196" lon="9.461425915360451">
        <ele>913</ele>
        <time>2010-01-01T01:16:51Z</time>
      </trkpt>
      <trkpt lat="45.986755862832069" lon="9.461343185976148">
        <ele>907</ele>
        <time>2010-01-01T01:16:59Z</time>
      </trkpt>
      <trkpt lat="45.986573891714215" lon="9.461282500997186">
        <ele>902</ele>
        <time>2010-01-01T01:17:06Z</time>
      </trkpt>
      <trkpt lat="45.986386137083173" lon="9.461267916485667">
        <ele>897</ele>
        <time>2010-01-01T01:17:14Z</time>
      </trkpt>
      <trkpt lat="45.986236101016402" lon="9.461125005036593">
        <ele>897</ele>
        <time>2010-01-01T01:17:21Z</time>
      </trkpt>
      <trkpt lat="45.986073827371001" lon="9.461006736382842">
        <ele>894</ele>
        <time>2010-01-01T01:17:28Z</time>
      </trkpt>
      <trkpt lat="45.985946003347635" lon="9.461189629510045">
        <ele>886</ele>
        <time>2010-01-01T01:17:35Z</time>
      </trkpt>
      <trkpt lat="45.985764116048813" lon="9.461190383881331">
        <ele>882</ele>
        <time>2010-01-01T01:17:43Z</time>
      </trkpt>
      <trkpt lat="45.985610811039805" lon="9.461045963689685">
        <ele>881</ele>
        <time>2010-01-01T01:17:50Z</time>
      </trkpt>
      <trkpt lat="45.985501678660512" lon="9.460838260129094">
        <ele>880</ele>
        <time>2010-01-01T01:17:57Z</time>
      </trkpt>
      <trkpt lat="45.985452560707927" lon="9.460671544075012">
        <ele>883</ele>
        <time>2010-01-01T01:18:02Z</time>
      </trkpt>
      <trkpt lat="45.985460020601749" lon="9.460698366165161">
        <ele>882</ele>
        <time>2010-01-01T01:18:03Z</time>
      </trkpt>
      <trkpt lat="45.985299339517951" lon="9.460638351738453">
        <ele>880</ele>
        <time>2010-01-01T01:18:10Z</time>
      </trkpt>
      <trkpt lat="45.985137401148677" lon="9.460472473874688">
        <ele>879</ele>
        <time>2010-01-01T01:18:18Z</time>
      </trkpt>
      <trkpt lat="45.984952915459871" lon="9.46047255769372">
        <ele>875</ele>
        <time>2010-01-01T01:18:25Z</time>
      </trkpt>
      <trkpt lat="45.984774297103286" lon="9.460543720051646">
        <ele>871</ele>
        <time>2010-01-01T01:18:32Z</time>
      </trkpt>
      <trkpt lat="45.984660806134343" lon="9.460764834657311">
        <ele>863</ele>
        <time>2010-01-01T01:18:40Z</time>
      </trkpt>
      <trkpt lat="45.984575981274247" lon="9.461001120507717">
        <ele>860</ele>
        <time>2010-01-01T01:18:48Z</time>
      </trkpt>
      <trkpt lat="45.984441619366407" lon="9.46118057705462">
        <ele>857</ele>
        <time>2010-01-01T01:18:55Z</time>
      </trkpt>
      <trkpt lat="45.984359560534358" lon="9.461427424103022">
        <ele>856</ele>
        <time>2010-01-01T01:19:02Z</time>
      </trkpt>
      <trkpt lat="45.98423601128161" lon="9.461633702740073">
        <ele>853</ele>
        <time>2010-01-01T01:19:10Z</time>
      </trkpt>
      <trkpt lat="45.984057979658246" lon="9.461773177608848">
        <ele>854</ele>
        <time>2010-01-01T01:19:18Z</time>
      </trkpt>
      <trkpt lat="45.983868129551411" lon="9.461759850382805">
        <ele>849</ele>
        <time>2010-01-01T01:19:26Z</time>
      </trkpt>
      <trkpt lat="45.983683727681637" lon="9.46172053925693">
        <ele>843</ele>
        <time>2010-01-01T01:19:33Z</time>
      </trkpt>
      <trkpt lat="45.983498571440578" lon="9.461785750463605">
        <ele>843</ele>
        <time>2010-01-01T01:19:41Z</time>
      </trkpt>
      <trkpt lat="45.983316516503692" lon="9.461811315268278">
        <ele>840</ele>
        <time>2010-01-01T01:19:48Z</time>
      </trkpt>
      <trkpt lat="45.983136221766472" lon="9.461762951686978">
        <ele>838</ele>
        <time>2010-01-01T01:19:56Z</time>
      </trkpt>
      <trkpt lat="45.982954669743776" lon="9.461729088798165">
        <ele>836</ele>
        <time>2010-01-01T01:20:03Z</time>
      </trkpt>
      <trkpt lat="45.982759036123753" lon="9.461776614189148">
        <ele>838</ele>
        <time>2010-01-01T01:20:11Z</time>
      </trkpt>
      <trkpt lat="45.982569940388203" lon="9.46178013458848">
        <ele>838</ele>
        <time>2010-01-01T01:20:18Z</time>
      </trkpt>
      <trkpt lat="45.982385538518429" lon="9.461787091568112">
        <ele>839</ele>
        <time>2010-01-01T01:20:26Z</time>
      </trkpt>
      <trkpt lat="45.982192335650325" lon="9.461746858432889">
        <ele>839</ele>
        <time>2010-01-01T01:20:34Z</time>
      </trkpt>
      <trkpt lat="45.982025871053338" lon="9.461622973904014">
        <ele>836</ele>
        <time>2010-01-01T01:20:41Z</time>
      </trkpt>
      <trkpt lat="45.981849683448672" lon="9.461547788232565">
        <ele>836</ele>
        <time>2010-01-01T01:20:48Z</time>
      </trkpt>
      <trkpt lat="45.981684224680066" lon="9.461425160989165">
        <ele>835</ele>
        <time>2010-01-01T01:20:56Z</time>
      </trkpt>
      <trkpt lat="45.981541397050023" lon="9.461250565946102">
        <ele>833</ele>
        <time>2010-01-01T01:21:03Z</time>
      </trkpt>
      <trkpt lat="45.981385577470064" lon="9.461113689467311">
        <ele>833</ele>
        <time>2010-01-01T01:21:11Z</time>
      </trkpt>
      <trkpt lat="45.981215760111809" lon="9.461023332551122">
        <ele>833</ele>
        <time>2010-01-01T01:21:18Z</time>
      </trkpt>
      <trkpt lat="45.981126325204968" lon="9.460791992023587">
        <ele>828</ele>
        <time>2010-01-01T01:21:25Z</time>
      </trkpt>
      <trkpt lat="45.981010990217328" lon="9.460589904338121">
        <ele>826</ele>
        <time>2010-01-01T01:21:33Z</time>
      </trkpt>
      <trkpt lat="45.980888782069087" lon="9.460391001775861">
        <ele>823</ele>
        <time>2010-01-01T01:21:40Z</time>
      </trkpt>
      <trkpt lat="45.980736734345555" lon="9.460248677060008">
        <ele>821</ele>
        <time>2010-01-01T01:21:47Z</time>
      </trkpt>
      <trkpt lat="45.980553505942225" lon="9.460191763937473">
        <ele>822</ele>
        <time>2010-01-01T01:21:55Z</time>
      </trkpt>
      <trkpt lat="45.980365835130215" lon="9.460159325972199">
        <ele>824</ele>
        <time>2010-01-01T01:22:02Z</time>
      </trkpt>
      <trkpt lat="45.980192916467786" lon="9.460083805024624">
        <ele>824</ele>
        <time>2010-01-01T01:22:10Z</time>
      </trkpt>
      <trkpt lat="45.980030139908195" lon="9.459965201094747">
        <ele>823</ele>
        <time>2010-01-01T01:22:17Z</time>
      </trkpt>
      <trkpt lat="45.979904914274812" lon="9.459774931892753">
        <ele>821</ele>
        <time>2010-01-01T01:22:24Z</time>
      </trkpt>
      <trkpt lat="45.979772564023733" lon="9.45958374068141">
        <ele>821</ele>
        <time>2010-01-01T01:22:32Z</time>
      </trkpt>
      <trkpt lat="45.979680279269814" lon="9.459352735430002">
        <ele>819</ele>
        <time>2010-01-01T01:22:39Z</time>
      </trkpt>
      <trkpt lat="45.979624958708882" lon="9.459104463458061">
        <ele>815</ele>
        <time>2010-01-01T01:22:46Z</time>
      </trkpt>
      <trkpt lat="45.979560920968652" lon="9.458857197314501">
        <ele>811</ele>
        <time>2010-01-01T01:22:54Z</time>
      </trkpt>
      <trkpt lat="45.979492692276835" lon="9.458614457398653">
        <ele>807</ele>
        <time>2010-01-01T01:23:01Z</time>
      </trkpt>
      <trkpt lat="45.979398479685187" lon="9.458370795473456">
        <ele>803</ele>
        <time>2010-01-01T01:23:09Z</time>
      </trkpt>
      <trkpt lat="45.979296891018748" lon="9.458150267601013">
        <ele>793</ele>
        <time>2010-01-01T01:23:16Z</time>
      </trkpt>
      <trkpt lat="45.979186585173011" lon="9.457945916801691">
        <ele>781</ele>
        <time>2010-01-01T01:23:23Z</time>
      </trkpt>
      <trkpt lat="45.979028418660164" lon="9.457816919311881">
        <ele>778</ele>
        <time>2010-01-01T01:23:31Z</time>
      </trkpt>
      <trkpt lat="45.978910233825445" lon="9.457598486915231">
        <ele>771</ele>
        <time>2010-01-01T01:23:38Z</time>
      </trkpt>
      <trkpt lat="45.97879221662879" lon="9.457396985962987">
        <ele>765</ele>
        <time>2010-01-01T01:23:46Z</time>
      </trkpt>
      <trkpt lat="45.978615023195744" lon="9.457286512479186">
        <ele>768</ele>
        <time>2010-01-01T01:23:53Z</time>
      </trkpt>
      <trkpt lat="45.978449564427137" lon="9.45716698653996">
        <ele>771</ele>
        <time>2010-01-01T01:24:01Z</time>
      </trkpt>
      <trkpt lat="45.978280920535326" lon="9.457047963514924">
        <ele>772</ele>
        <time>2010-01-01T01:24:08Z</time>
      </trkpt>
      <trkpt lat="45.978128202259541" lon="9.45689826272428">
        <ele>764</ele>
        <time>2010-01-01T01:24:16Z</time>
      </trkpt>
      <trkpt lat="45.978096770122647" lon="9.456628616899252">
        <ele>754</ele>
        <time>2010-01-01T01:24:23Z</time>
      </trkpt>
      <trkpt lat="45.978260384872556" lon="9.45648537017405">
        <ele>749</ele>
        <time>2010-01-01T01:24:31Z</time>
      </trkpt>
      <trkpt lat="45.978286536410451" lon="9.456222178414464">
        <ele>739</ele>
        <time>2010-01-01T01:24:38Z</time>
      </trkpt>
      <trkpt lat="45.978169860318303" lon="9.456009278073907">
        <ele>732</ele>
        <time>2010-01-01T01:24:46Z</time>
      </trkpt>
      <trkpt lat="45.97800892777741" lon="9.455872066318989">
        <ele>729</ele>
        <time>2010-01-01T01:24:53Z</time>
      </trkpt>
      <trkpt lat="45.977895269170403" lon="9.455625722184777">
        <ele>730</ele>
        <time>2010-01-01T01:25:02Z</time>
      </trkpt>
      <trkpt lat="45.977792087942362" lon="9.45529748685658">
        <ele>730</ele>
        <time>2010-01-01T01:25:12Z</time>
      </trkpt>
      <trkpt lat="45.977687397971749" lon="9.455064050853252">
        <ele>727</ele>
        <time>2010-01-01T01:25:19Z</time>
      </trkpt>
      <trkpt lat="45.977561585605145" lon="9.454861292615533">
        <ele>720</ele>
        <time>2010-01-01T01:25:27Z</time>
      </trkpt>
      <trkpt lat="45.977501906454563" lon="9.454607320949435">
        <ele>710</ele>
        <time>2010-01-01T01:25:34Z</time>
      </trkpt>
      <trkpt lat="45.97759653814137" lon="9.454386541619897">
        <ele>704</ele>
        <time>2010-01-01T01:25:42Z</time>
      </trkpt>
      <trkpt lat="45.977444238960743" lon="9.454531716182828">
        <ele>705</ele>
        <time>2010-01-01T01:25:49Z</time>
      </trkpt>
      <trkpt lat="45.977330831810832" lon="9.454320911318064">
        <ele>692</ele>
        <time>2010-01-01T01:25:56Z</time>
      </trkpt>
      <trkpt lat="45.977428564801812" lon="9.454078255221248">
        <ele>689</ele>
        <time>2010-01-01T01:26:04Z</time>
      </trkpt>
      <trkpt lat="45.9775017388165" lon="9.453827552497387">
        <ele>683</ele>
        <time>2010-01-01T01:26:12Z</time>
      </trkpt>
      <trkpt lat="45.977662419900298" lon="9.45370065048337">
        <ele>680</ele>
        <time>2010-01-01T01:26:19Z</time>
      </trkpt>
      <trkpt lat="45.977795021608472" lon="9.453517338261008">
        <ele>674</ele>
        <time>2010-01-01T01:26:26Z</time>
      </trkpt>
      <trkpt lat="45.977625036612153" lon="9.45342555642128">
        <ele>669</ele>
        <time>2010-01-01T01:26:34Z</time>
      </trkpt>
      <trkpt lat="45.977466786280274" lon="9.453561343252659">
        <ele>672</ele>
        <time>2010-01-01T01:26:41Z</time>
      </trkpt>
      <trkpt lat="45.977285569533706" lon="9.453633762896061">
        <ele>667</ele>
        <time>2010-01-01T01:26:48Z</time>
      </trkpt>
      <trkpt lat="45.977097060531378" lon="9.453693777322769">
        <ele>661</ele>
        <time>2010-01-01T01:26:56Z</time>
      </trkpt>
      <trkpt lat="45.976939313113689" lon="9.453859068453312">
        <ele>660</ele>
        <time>2010-01-01T01:27:04Z</time>
      </trkpt>
      <trkpt lat="45.976747283712029" lon="9.453951269388199">
        <ele>654</ele>
        <time>2010-01-01T01:27:12Z</time>
      </trkpt>
      <trkpt lat="45.976644605398178" lon="9.453725628554821">
        <ele>643</ele>
        <time>2010-01-01T01:27:20Z</time>
      </trkpt>
    </trkseg>
  </trk>

</gpx>